<?xml version="1.0" encoding="UTF-8"?>
<gpx version="1.1" creator="2bulu-scraper" xmlns="http://www.topografix.com/GPX/1/1">
  <metadata><name>峨眉山（雷洞坪到金顶）</name><desc>source: 2bulu.com trackId=85016365; exported 2026-09-01T16:10:50.564Z</desc>
    <bounds minlat="29.5226562" minlon="103.3268205" maxlat="29.5410625" maxlon="103.3374493"/>
    <link href="https://www.2bulu.com/track/t-HDsoer324Gfp%252FR2KBg5Tzw%253D%253D.htm"><text>2bulu 源页面</text></link>
  </metadata>
  <wpt lat="29.5406767" lon="103.3317176"><ele>2394</ele><name>
        </name></wpt>
  <wpt lat="29.5392097" lon="103.3328125"><ele>2413</ele><name>
        </name></wpt>
  <wpt lat="29.5382656" lon="103.333255"><ele>2422</ele><name>
        </name></wpt>
  <wpt lat="29.5377339" lon="103.3336313"><ele>2422</ele><name>
        </name></wpt>
  <wpt lat="29.5371696" lon="103.3341484"><ele>2441</ele><name>
        </name></wpt>
  <wpt lat="29.5365984" lon="103.3343519"><ele>2451</ele><name>
        </name></wpt>
  <wpt lat="29.5352708" lon="103.3333748"><ele>2479</ele><name>
        </name></wpt>
  <wpt lat="29.5347964" lon="103.3329529"><ele>2497</ele><name>
        </name></wpt>
  <wpt lat="29.5343593" lon="103.3331476"><ele>2513</ele><name>
        </name></wpt>
  <wpt lat="29.5327512" lon="103.3321412"><ele>2577</ele><name>
        </name></wpt>
  <wpt lat="29.5323142" lon="103.3312305"><ele>2615</ele><name>
        </name></wpt>
  <wpt lat="29.5321567" lon="103.3302138"><ele>2656</ele><name>
        </name></wpt>
  <wpt lat="29.5321698" lon="103.3302682"><ele>2658</ele><name>
        </name></wpt>
  <wpt lat="29.5313092" lon="103.3297993"><ele>2710</ele><name>
        </name></wpt>
  <wpt lat="29.5299928" lon="103.3272527"><ele>2812</ele><name>
        </name></wpt>
  <wpt lat="29.5286157" lon="103.3296781"><ele>2859</ele><name>
        </name></wpt>
  <wpt lat="29.5272583" lon="103.3324473"><ele>2908</ele><name>
        </name></wpt>
  <wpt lat="29.5257436" lon="103.3340694"><ele>2959</ele><name>
        </name></wpt>
  <wpt lat="29.5250131" lon="103.3348377"><ele>2981</ele><name>
        </name></wpt>
  <wpt lat="29.5243264" lon="103.3349645"><ele>2991</ele><name>
        </name></wpt>
  <wpt lat="29.5242285" lon="103.3349492"><ele>2991</ele><name>
        </name></wpt>
  <wpt lat="29.5235242" lon="103.3349029"><ele>2992</ele><name>
        </name></wpt>
  <wpt lat="29.5230419" lon="103.3347629"><ele>2997</ele><name>
        </name></wpt>
  <wpt lat="29.5226593" lon="103.334941"><ele>3005</ele><name>
        </name></wpt>
  <wpt lat="29.5226992" lon="103.3351889"><ele>3011</ele><name>
        </name></wpt>
  <wpt lat="29.5233279" lon="103.3372565"><ele>3020</ele><name>
        </name></wpt>
  <wpt lat="29.5233279" lon="103.3372565"><ele>3020</ele><name>
        </name></wpt>
  <wpt lat="29.5233155" lon="103.3372048"><ele>3023</ele><name>
        </name></wpt>
  <wpt lat="29.5232825" lon="103.3371653"><ele>3026</ele><name>
        </name></wpt>
  <wpt lat="29.5232677" lon="103.3371142"><ele>3026</ele><name>
        </name></wpt>
  <wpt lat="29.523245" lon="103.337008"><ele>3026</ele><name>
        </name></wpt>
  <trk><name>峨眉山（雷洞坪到金顶）</name>
      <trkseg>
        <trkpt lat="29.5410625" lon="103.3317787"><ele>2407.4</ele><time>2026-05-12T12:06:33.000Z</time></trkpt>
        <trkpt lat="29.5410015" lon="103.3318658"><ele>2407.4</ele><time>2026-05-12T12:06:37.000Z</time></trkpt>
        <trkpt lat="29.5409653" lon="103.3318473"><ele>2395.22</ele><time>2026-05-12T12:06:49.000Z</time></trkpt>
        <trkpt lat="29.5409157" lon="103.3318204"><ele>2392.72</ele><time>2026-05-12T12:06:59.000Z</time></trkpt>
        <trkpt lat="29.540874" lon="103.3317855"><ele>2390.81</ele><time>2026-05-12T12:07:05.000Z</time></trkpt>
        <trkpt lat="29.5408246" lon="103.3317611"><ele>2389.6</ele><time>2026-05-12T12:07:13.000Z</time></trkpt>
        <trkpt lat="29.5407799" lon="103.3317381"><ele>2389.22</ele><time>2026-05-12T12:07:19.000Z</time></trkpt>
        <trkpt lat="29.5407304" lon="103.3317228"><ele>2388.92</ele><time>2026-05-12T12:07:29.000Z</time></trkpt>
        <trkpt lat="29.5406767" lon="103.3317176"><ele>2390.67</ele><time>2026-05-12T12:07:39.000Z</time></trkpt>
        <trkpt lat="29.5406256" lon="103.3317399"><ele>2392.21</ele><time>2026-05-12T12:07:45.000Z</time></trkpt>
        <trkpt lat="29.5405816" lon="103.3317828"><ele>2393.3</ele><time>2026-05-12T12:07:51.000Z</time></trkpt>
        <trkpt lat="29.5405382" lon="103.3318288"><ele>2393.32</ele><time>2026-05-12T12:07:57.000Z</time></trkpt>
        <trkpt lat="29.5404906" lon="103.3318651"><ele>2393.92</ele><time>2026-05-12T12:08:03.000Z</time></trkpt>
        <trkpt lat="29.5404385" lon="103.3318894"><ele>2394.19</ele><time>2026-05-12T12:08:09.000Z</time></trkpt>
        <trkpt lat="29.5403849" lon="103.3319186"><ele>2394.3</ele><time>2026-05-12T12:08:15.000Z</time></trkpt>
        <trkpt lat="29.5403264" lon="103.3319436"><ele>2395.02</ele><time>2026-05-12T12:08:21.000Z</time></trkpt>
        <trkpt lat="29.5402698" lon="103.3319709"><ele>2395.64</ele><time>2026-05-12T12:08:27.000Z</time></trkpt>
        <trkpt lat="29.5402062" lon="103.3319917"><ele>2395.77</ele><time>2026-05-12T12:08:31.000Z</time></trkpt>
        <trkpt lat="29.540191" lon="103.3320486"><ele>2395.7</ele><time>2026-05-12T12:08:37.000Z</time></trkpt>
        <trkpt lat="29.5401686" lon="103.3320986"><ele>2394.96</ele><time>2026-05-12T12:08:43.000Z</time></trkpt>
        <trkpt lat="29.540135" lon="103.3321358"><ele>2394.69</ele><time>2026-05-12T12:08:49.000Z</time></trkpt>
        <trkpt lat="29.5400837" lon="103.332166"><ele>2394.97</ele><time>2026-05-12T12:08:55.000Z</time></trkpt>
        <trkpt lat="29.5400291" lon="103.3322058"><ele>2395.12</ele><time>2026-05-12T12:09:01.000Z</time></trkpt>
        <trkpt lat="29.5399681" lon="103.3322334"><ele>2394.53</ele><time>2026-05-12T12:09:07.000Z</time></trkpt>
        <trkpt lat="29.5399116" lon="103.3322451"><ele>2395.29</ele><time>2026-05-12T12:09:13.000Z</time></trkpt>
        <trkpt lat="29.5398617" lon="103.3322657"><ele>2395.5</ele><time>2026-05-12T12:09:19.000Z</time></trkpt>
        <trkpt lat="29.5398112" lon="103.3322922"><ele>2396.27</ele><time>2026-05-12T12:09:27.000Z</time></trkpt>
        <trkpt lat="29.5397606" lon="103.3323271"><ele>2397.09</ele><time>2026-05-12T12:09:35.000Z</time></trkpt>
        <trkpt lat="29.5397208" lon="103.3323621"><ele>2398.36</ele><time>2026-05-12T12:09:41.000Z</time></trkpt>
        <trkpt lat="29.5396836" lon="103.3324006"><ele>2399.19</ele><time>2026-05-12T12:09:51.000Z</time></trkpt>
        <trkpt lat="29.5396439" lon="103.3324306"><ele>2399.91</ele><time>2026-05-12T12:10:01.000Z</time></trkpt>
        <trkpt lat="29.5396013" lon="103.3324612"><ele>2400.53</ele><time>2026-05-12T12:10:11.000Z</time></trkpt>
        <trkpt lat="29.5395594" lon="103.3324924"><ele>2400.92</ele><time>2026-05-12T12:10:23.000Z</time></trkpt>
        <trkpt lat="29.539522" lon="103.3325287"><ele>2401.89</ele><time>2026-05-12T12:10:33.000Z</time></trkpt>
        <trkpt lat="29.5394831" lon="103.3325689"><ele>2402.73</ele><time>2026-05-12T12:10:45.000Z</time></trkpt>
        <trkpt lat="29.5394438" lon="103.332608"><ele>2403.7</ele><time>2026-05-12T12:10:55.000Z</time></trkpt>
        <trkpt lat="29.5394172" lon="103.3326528"><ele>2403.93</ele><time>2026-05-12T12:11:05.000Z</time></trkpt>
        <trkpt lat="29.5393748" lon="103.3326881"><ele>2405.02</ele><time>2026-05-12T12:11:13.000Z</time></trkpt>
        <trkpt lat="29.5393347" lon="103.3327204"><ele>2406.28</ele><time>2026-05-12T12:11:21.000Z</time></trkpt>
        <trkpt lat="29.5392896" lon="103.3327477"><ele>2407.44</ele><time>2026-05-12T12:11:31.000Z</time></trkpt>
        <trkpt lat="29.539248" lon="103.332779"><ele>2408.4</ele><time>2026-05-12T12:11:37.000Z</time></trkpt>
        <trkpt lat="29.5392097" lon="103.3328125"><ele>2410.43</ele><time>2026-05-12T12:11:43.000Z</time></trkpt>
        <trkpt lat="29.5391693" lon="103.3328382"><ele>2411.49</ele><time>2026-05-12T12:11:49.000Z</time></trkpt>
        <trkpt lat="29.5391183" lon="103.3328705"><ele>2411.07</ele><time>2026-05-12T12:11:57.000Z</time></trkpt>
        <trkpt lat="29.539066" lon="103.3329151"><ele>2409.98</ele><time>2026-05-12T12:12:03.000Z</time></trkpt>
        <trkpt lat="29.5390231" lon="103.3329487"><ele>2410.62</ele><time>2026-05-12T12:12:07.000Z</time></trkpt>
        <trkpt lat="29.5389781" lon="103.3329914"><ele>2411.47</ele><time>2026-05-12T12:12:13.000Z</time></trkpt>
        <trkpt lat="29.5389367" lon="103.333027"><ele>2412.77</ele><time>2026-05-12T12:12:19.000Z</time></trkpt>
        <trkpt lat="29.5388995" lon="103.3330611"><ele>2414.02</ele><time>2026-05-12T12:12:23.000Z</time></trkpt>
        <trkpt lat="29.5388589" lon="103.3330896"><ele>2415.65</ele><time>2026-05-12T12:12:27.000Z</time></trkpt>
        <trkpt lat="29.5388012" lon="103.3331161"><ele>2417.3</ele><time>2026-05-12T12:12:33.000Z</time></trkpt>
        <trkpt lat="29.5387407" lon="103.3331339"><ele>2417.77</ele><time>2026-05-12T12:12:39.000Z</time></trkpt>
        <trkpt lat="29.5386899" lon="103.3331523"><ele>2417.86</ele><time>2026-05-12T12:12:45.000Z</time></trkpt>
        <trkpt lat="29.5386456" lon="103.3331713"><ele>2417.47</ele><time>2026-05-12T12:12:51.000Z</time></trkpt>
        <trkpt lat="29.5385992" lon="103.3331799"><ele>2417.38</ele><time>2026-05-12T12:12:57.000Z</time></trkpt>
        <trkpt lat="29.5385523" lon="103.3331927"><ele>2417.11</ele><time>2026-05-12T12:13:03.000Z</time></trkpt>
        <trkpt lat="29.5384995" lon="103.3331952"><ele>2417.09</ele><time>2026-05-12T12:13:09.000Z</time></trkpt>
        <trkpt lat="29.5384502" lon="103.3331976"><ele>2417.97</ele><time>2026-05-12T12:13:15.000Z</time></trkpt>
        <trkpt lat="29.5383983" lon="103.3332038"><ele>2418.43</ele><time>2026-05-12T12:13:21.000Z</time></trkpt>
        <trkpt lat="29.5383501" lon="103.3332122"><ele>2418.6</ele><time>2026-05-12T12:13:27.000Z</time></trkpt>
        <trkpt lat="29.5383064" lon="103.333228"><ele>2418.75</ele><time>2026-05-12T12:13:33.000Z</time></trkpt>
        <trkpt lat="29.5382656" lon="103.333255"><ele>2420.22</ele><time>2026-05-12T12:13:39.000Z</time></trkpt>
        <trkpt lat="29.5382144" lon="103.3332996"><ele>2421.19</ele><time>2026-05-12T12:13:47.000Z</time></trkpt>
        <trkpt lat="29.5381662" lon="103.3333406"><ele>2421.76</ele><time>2026-05-12T12:13:51.000Z</time></trkpt>
        <trkpt lat="29.5381135" lon="103.3333849"><ele>2422.49</ele><time>2026-05-12T12:13:57.000Z</time></trkpt>
        <trkpt lat="29.5380725" lon="103.3334199"><ele>2423.33</ele><time>2026-05-12T12:14:01.000Z</time></trkpt>
        <trkpt lat="29.5380227" lon="103.3334495"><ele>2422.9</ele><time>2026-05-12T12:14:07.000Z</time></trkpt>
        <trkpt lat="29.537968" lon="103.333477"><ele>2421.81</ele><time>2026-05-12T12:14:13.000Z</time></trkpt>
        <trkpt lat="29.5379196" lon="103.3334936"><ele>2421.4</ele><time>2026-05-12T12:14:17.000Z</time></trkpt>
        <trkpt lat="29.5378612" lon="103.3335106"><ele>2420.95</ele><time>2026-05-12T12:14:23.000Z</time></trkpt>
        <trkpt lat="29.5378139" lon="103.3335316"><ele>2421.19</ele><time>2026-05-12T12:14:27.000Z</time></trkpt>
        <trkpt lat="29.537773" lon="103.3335777"><ele>2421.39</ele><time>2026-05-12T12:14:33.000Z</time></trkpt>
        <trkpt lat="29.5377691" lon="103.3336046"><ele>2422.08</ele><time>2026-05-12T12:14:38.000Z</time></trkpt>
        <trkpt lat="29.5377339" lon="103.3336313"><ele>2421.85</ele><time>2026-05-12T12:14:58.000Z</time></trkpt>
        <trkpt lat="29.5377011" lon="103.3336745"><ele>2421.86</ele><time>2026-05-12T12:15:04.000Z</time></trkpt>
        <trkpt lat="29.537651" lon="103.3337206"><ele>2422.61</ele><time>2026-05-12T12:15:12.000Z</time></trkpt>
        <trkpt lat="29.5376079" lon="103.3337557"><ele>2423.88</ele><time>2026-05-12T12:15:16.000Z</time></trkpt>
        <trkpt lat="29.5375532" lon="103.3337649"><ele>2424.97</ele><time>2026-05-12T12:15:22.000Z</time></trkpt>
        <trkpt lat="29.5375009" lon="103.3337701"><ele>2424.74</ele><time>2026-05-12T12:15:28.000Z</time></trkpt>
        <trkpt lat="29.5374429" lon="103.3337742"><ele>2425.51</ele><time>2026-05-12T12:15:38.000Z</time></trkpt>
        <trkpt lat="29.5373846" lon="103.3337814"><ele>2426.63</ele><time>2026-05-12T12:15:44.000Z</time></trkpt>
        <trkpt lat="29.537331" lon="103.3337751"><ele>2427.84</ele><time>2026-05-12T12:15:50.000Z</time></trkpt>
        <trkpt lat="29.5372953" lon="103.3338006"><ele>2428.97</ele><time>2026-05-12T12:15:56.000Z</time></trkpt>
        <trkpt lat="29.5372758" lon="103.3338577"><ele>2430.31</ele><time>2026-05-12T12:16:04.000Z</time></trkpt>
        <trkpt lat="29.5372588" lon="103.3339182"><ele>2431.82</ele><time>2026-05-12T12:16:12.000Z</time></trkpt>
        <trkpt lat="29.5372415" lon="103.333984"><ele>2433.52</ele><time>2026-05-12T12:16:22.000Z</time></trkpt>
        <trkpt lat="29.5372275" lon="103.3340398"><ele>2435.13</ele><time>2026-05-12T12:16:30.000Z</time></trkpt>
        <trkpt lat="29.5372041" lon="103.3341051"><ele>2436.25</ele><time>2026-05-12T12:16:36.000Z</time></trkpt>
        <trkpt lat="29.5371696" lon="103.3341484"><ele>2438.17</ele><time>2026-05-12T12:16:44.000Z</time></trkpt>
        <trkpt lat="29.5371258" lon="103.3341731"><ele>2439.31</ele><time>2026-05-12T12:16:56.000Z</time></trkpt>
        <trkpt lat="29.5370803" lon="103.3341862"><ele>2440.06</ele><time>2026-05-12T12:17:04.000Z</time></trkpt>
        <trkpt lat="29.5370416" lon="103.3342141"><ele>2440.64</ele><time>2026-05-12T12:17:14.000Z</time></trkpt>
        <trkpt lat="29.5369952" lon="103.3342356"><ele>2441.67</ele><time>2026-05-12T12:17:24.000Z</time></trkpt>
        <trkpt lat="29.5369467" lon="103.3342521"><ele>2442.92</ele><time>2026-05-12T12:17:32.000Z</time></trkpt>
        <trkpt lat="29.5369" lon="103.3342662"><ele>2444.38</ele><time>2026-05-12T12:17:44.000Z</time></trkpt>
        <trkpt lat="29.5368517" lon="103.3342874"><ele>2445.06</ele><time>2026-05-12T12:17:52.000Z</time></trkpt>
        <trkpt lat="29.5368031" lon="103.3343049"><ele>2446.16</ele><time>2026-05-12T12:18:02.000Z</time></trkpt>
        <trkpt lat="29.5367547" lon="103.3343327"><ele>2447.88</ele><time>2026-05-12T12:18:10.000Z</time></trkpt>
        <trkpt lat="29.5367015" lon="103.3343465"><ele>2448.48</ele><time>2026-05-12T12:18:20.000Z</time></trkpt>
        <trkpt lat="29.5366469" lon="103.3343536"><ele>2450.8</ele><time>2026-05-12T12:18:28.000Z</time></trkpt>
        <trkpt lat="29.5365984" lon="103.3343519"><ele>2452.12</ele><time>2026-05-12T12:18:40.000Z</time></trkpt>
        <trkpt lat="29.5365346" lon="103.3343616"><ele>2451.54</ele><time>2026-05-12T12:18:48.000Z</time></trkpt>
        <trkpt lat="29.5364822" lon="103.3343532"><ele>2450.68</ele><time>2026-05-12T12:18:52.000Z</time></trkpt>
        <trkpt lat="29.536423" lon="103.3343474"><ele>2449.88</ele><time>2026-05-12T12:18:58.000Z</time></trkpt>
        <trkpt lat="29.5363733" lon="103.3343514"><ele>2449.76</ele><time>2026-05-12T12:19:04.000Z</time></trkpt>
        <trkpt lat="29.5363278" lon="103.3343656"><ele>2449.92</ele><time>2026-05-12T12:19:14.000Z</time></trkpt>
        <trkpt lat="29.5362765" lon="103.3343575"><ele>2451.17</ele><time>2026-05-12T12:19:24.000Z</time></trkpt>
        <trkpt lat="29.53623" lon="103.3343461"><ele>2451.94</ele><time>2026-05-12T12:19:32.000Z</time></trkpt>
        <trkpt lat="29.5361852" lon="103.3343291"><ele>2452.16</ele><time>2026-05-12T12:19:38.000Z</time></trkpt>
        <trkpt lat="29.5361464" lon="103.3343004"><ele>2452.34</ele><time>2026-05-12T12:19:44.000Z</time></trkpt>
        <trkpt lat="29.5361071" lon="103.334269"><ele>2452.57</ele><time>2026-05-12T12:19:52.000Z</time></trkpt>
        <trkpt lat="29.536062" lon="103.3342373"><ele>2453.09</ele><time>2026-05-12T12:20:00.000Z</time></trkpt>
        <trkpt lat="29.5360146" lon="103.334212"><ele>2453.61</ele><time>2026-05-12T12:20:10.000Z</time></trkpt>
        <trkpt lat="29.5359749" lon="103.3341833"><ele>2454.33</ele><time>2026-05-12T12:20:24.000Z</time></trkpt>
        <trkpt lat="29.5359321" lon="103.33416"><ele>2456.78</ele><time>2026-05-12T12:20:34.000Z</time></trkpt>
        <trkpt lat="29.5358921" lon="103.3341331"><ele>2458.45</ele><time>2026-05-12T12:20:42.000Z</time></trkpt>
        <trkpt lat="29.5358568" lon="103.3340915"><ele>2460.4</ele><time>2026-05-12T12:20:52.000Z</time></trkpt>
        <trkpt lat="29.5358119" lon="103.334075"><ele>2461.97</ele><time>2026-05-12T12:20:58.000Z</time></trkpt>
        <trkpt lat="29.5357723" lon="103.3340498"><ele>2464.03</ele><time>2026-05-12T12:21:04.000Z</time></trkpt>
        <trkpt lat="29.5357212" lon="103.3340215"><ele>2464.35</ele><time>2026-05-12T12:21:10.000Z</time></trkpt>
        <trkpt lat="29.535671" lon="103.3339984"><ele>2465.2</ele><time>2026-05-12T12:21:14.000Z</time></trkpt>
        <trkpt lat="29.5356207" lon="103.333971"><ele>2465.5</ele><time>2026-05-12T12:21:22.000Z</time></trkpt>
        <trkpt lat="29.5355841" lon="103.3339363"><ele>2465.51</ele><time>2026-05-12T12:21:32.000Z</time></trkpt>
        <trkpt lat="29.5355573" lon="103.3338889"><ele>2466.01</ele><time>2026-05-12T12:21:46.000Z</time></trkpt>
        <trkpt lat="29.5355314" lon="103.3338392"><ele>2466.83</ele><time>2026-05-12T12:22:00.000Z</time></trkpt>
        <trkpt lat="29.5355047" lon="103.3337926"><ele>2468.85</ele><time>2026-05-12T12:22:14.000Z</time></trkpt>
        <trkpt lat="29.5354716" lon="103.3337525"><ele>2470.72</ele><time>2026-05-12T12:22:28.000Z</time></trkpt>
        <trkpt lat="29.5354885" lon="103.3337709"><ele>2472.01</ele><time>2026-05-12T12:22:56.000Z</time></trkpt>
        <trkpt lat="29.5354836" lon="103.3337404"><ele>2472.77</ele><time>2026-05-12T12:23:16.000Z</time></trkpt>
        <trkpt lat="29.5354605" lon="103.3337016"><ele>2473.11</ele><time>2026-05-12T12:23:20.000Z</time></trkpt>
        <trkpt lat="29.5354231" lon="103.3336506"><ele>2473.32</ele><time>2026-05-12T12:23:26.000Z</time></trkpt>
        <trkpt lat="29.5353866" lon="103.3335858"><ele>2473.62</ele><time>2026-05-12T12:23:32.000Z</time></trkpt>
        <trkpt lat="29.5353534" lon="103.3335199"><ele>2473.96</ele><time>2026-05-12T12:23:38.000Z</time></trkpt>
        <trkpt lat="29.5353138" lon="103.3334842"><ele>2474.43</ele><time>2026-05-12T12:23:46.000Z</time></trkpt>
        <trkpt lat="29.535291" lon="103.3334255"><ele>2474.73</ele><time>2026-05-12T12:23:56.000Z</time></trkpt>
        <trkpt lat="29.5352708" lon="103.3333748"><ele>2475.28</ele><time>2026-05-12T12:24:02.000Z</time></trkpt>
        <trkpt lat="29.5352523" lon="103.3333194"><ele>2476.74</ele><time>2026-05-12T12:24:16.000Z</time></trkpt>
        <trkpt lat="29.5352301" lon="103.3332646"><ele>2478.49</ele><time>2026-05-12T12:24:24.000Z</time></trkpt>
        <trkpt lat="29.5351956" lon="103.3332066"><ele>2480.15</ele><time>2026-05-12T12:24:34.000Z</time></trkpt>
        <trkpt lat="29.5351737" lon="103.3331537"><ele>2481.39</ele><time>2026-05-12T12:24:46.000Z</time></trkpt>
        <trkpt lat="29.5351609" lon="103.3331013"><ele>2482.42</ele><time>2026-05-12T12:24:58.000Z</time></trkpt>
        <trkpt lat="29.5351331" lon="103.3330555"><ele>2483.18</ele><time>2026-05-12T12:25:10.000Z</time></trkpt>
        <trkpt lat="29.5351" lon="103.3330037"><ele>2485.12</ele><time>2026-05-12T12:25:20.000Z</time></trkpt>
        <trkpt lat="29.5350925" lon="103.3329497"><ele>2486.97</ele><time>2026-05-12T12:25:32.000Z</time></trkpt>
        <trkpt lat="29.5350775" lon="103.3328992"><ele>2489.71</ele><time>2026-05-12T12:25:42.000Z</time></trkpt>
        <trkpt lat="29.5350533" lon="103.3328532"><ele>2491.93</ele><time>2026-05-12T12:25:48.000Z</time></trkpt>
        <trkpt lat="29.5350116" lon="103.3328309"><ele>2493.13</ele><time>2026-05-12T12:25:54.000Z</time></trkpt>
        <trkpt lat="29.5349552" lon="103.3328125"><ele>2493.59</ele><time>2026-05-12T12:26:02.000Z</time></trkpt>
        <trkpt lat="29.5349045" lon="103.3328181"><ele>2493.82</ele><time>2026-05-12T12:26:06.000Z</time></trkpt>
        <trkpt lat="29.5348563" lon="103.3328469"><ele>2494.52</ele><time>2026-05-12T12:26:14.000Z</time></trkpt>
        <trkpt lat="29.5348286" lon="103.3329077"><ele>2495.4</ele><time>2026-05-12T12:26:20.000Z</time></trkpt>
        <trkpt lat="29.5347964" lon="103.3329529"><ele>2496.15</ele><time>2026-05-12T12:26:26.000Z</time></trkpt>
        <trkpt lat="29.5347508" lon="103.3329663"><ele>2496.45</ele><time>2026-05-12T12:26:52.000Z</time></trkpt>
        <trkpt lat="29.5347082" lon="103.3329973"><ele>2496.84</ele><time>2026-05-12T12:27:02.000Z</time></trkpt>
        <trkpt lat="29.5346555" lon="103.3330199"><ele>2497.03</ele><time>2026-05-12T12:27:12.000Z</time></trkpt>
        <trkpt lat="29.5346042" lon="103.3330221"><ele>2498.44</ele><time>2026-05-12T12:27:20.000Z</time></trkpt>
        <trkpt lat="29.5346042" lon="103.3330221"><ele>2498.44</ele><time>2026-05-12T12:28:24.000Z</time></trkpt>
        <trkpt lat="29.5346042" lon="103.3330221"><ele>2498.44</ele><time>2026-05-12T12:28:32.000Z</time></trkpt>
        <trkpt lat="29.5346042" lon="103.3330221"><ele>2498.44</ele><time>2026-05-12T12:28:56.000Z</time></trkpt>
        <trkpt lat="29.5345601" lon="103.3329911"><ele>2499.41</ele><time>2026-05-12T12:29:02.000Z</time></trkpt>
        <trkpt lat="29.5345601" lon="103.3329911"><ele>2499.41</ele><time>2026-05-12T12:29:28.000Z</time></trkpt>
        <trkpt lat="29.5345238" lon="103.33303"><ele>2501.7</ele><time>2026-05-12T12:29:46.000Z</time></trkpt>
        <trkpt lat="29.5344834" lon="103.3330614"><ele>2503.43</ele><time>2026-05-12T12:29:52.000Z</time></trkpt>
        <trkpt lat="29.5344416" lon="103.3330851"><ele>2505.18</ele><time>2026-05-12T12:29:58.000Z</time></trkpt>
        <trkpt lat="29.5343994" lon="103.3331135"><ele>2506.53</ele><time>2026-05-12T12:30:06.000Z</time></trkpt>
        <trkpt lat="29.5343593" lon="103.3331476"><ele>2508.51</ele><time>2026-05-12T12:30:14.000Z</time></trkpt>
        <trkpt lat="29.5343074" lon="103.3331516"><ele>2510.34</ele><time>2026-05-12T12:30:30.000Z</time></trkpt>
        <trkpt lat="29.5342621" lon="103.333133"><ele>2509.9</ele><time>2026-05-12T12:30:36.000Z</time></trkpt>
        <trkpt lat="29.5342128" lon="103.3331203"><ele>2508.74</ele><time>2026-05-12T12:30:52.000Z</time></trkpt>
        <trkpt lat="29.5341641" lon="103.3331444"><ele>2510.47</ele><time>2026-05-12T12:31:00.000Z</time></trkpt>
        <trkpt lat="29.5341104" lon="103.3331754"><ele>2512.54</ele><time>2026-05-12T12:31:08.000Z</time></trkpt>
        <trkpt lat="29.5340609" lon="103.3331985"><ele>2513.7</ele><time>2026-05-12T12:31:20.000Z</time></trkpt>
        <trkpt lat="29.5340148" lon="103.3332031"><ele>2515.96</ele><time>2026-05-12T12:31:26.000Z</time></trkpt>
        <trkpt lat="29.5339688" lon="103.333211"><ele>2516.67</ele><time>2026-05-12T12:31:34.000Z</time></trkpt>
        <trkpt lat="29.5339172" lon="103.3332139"><ele>2517.93</ele><time>2026-05-12T12:31:42.000Z</time></trkpt>
        <trkpt lat="29.5338682" lon="103.3332016"><ele>2519.59</ele><time>2026-05-12T12:32:02.000Z</time></trkpt>
        <trkpt lat="29.5338391" lon="103.3331614"><ele>2521.12</ele><time>2026-05-12T12:32:16.000Z</time></trkpt>
        <trkpt lat="29.5337992" lon="103.3331244"><ele>2524.2</ele><time>2026-05-12T12:32:28.000Z</time></trkpt>
        <trkpt lat="29.5337556" lon="103.333095"><ele>2527.14</ele><time>2026-05-12T12:32:40.000Z</time></trkpt>
        <trkpt lat="29.5337151" lon="103.3330583"><ele>2528.39</ele><time>2026-05-12T12:32:56.000Z</time></trkpt>
        <trkpt lat="29.5336662" lon="103.3330328"><ele>2530.92</ele><time>2026-05-12T12:33:04.000Z</time></trkpt>
        <trkpt lat="29.5336425" lon="103.3329893"><ele>2532.54</ele><time>2026-05-12T12:33:14.000Z</time></trkpt>
        <trkpt lat="29.5336358" lon="103.3329313"><ele>2533.44</ele><time>2026-05-12T12:33:24.000Z</time></trkpt>
        <trkpt lat="29.5336358" lon="103.3329313"><ele>2533.44</ele><time>2026-05-12T12:33:48.000Z</time></trkpt>
        <trkpt lat="29.5336358" lon="103.3329313"><ele>2533.44</ele><time>2026-05-12T12:33:50.000Z</time></trkpt>
        <trkpt lat="29.5336358" lon="103.3329313"><ele>2533.44</ele><time>2026-05-12T12:34:26.000Z</time></trkpt>
        <trkpt lat="29.5336358" lon="103.3329313"><ele>2533.44</ele><time>2026-05-12T12:34:32.000Z</time></trkpt>
        <trkpt lat="29.5336358" lon="103.3329313"><ele>2533.44</ele><time>2026-05-12T12:35:10.000Z</time></trkpt>
        <trkpt lat="29.5335917" lon="103.3329275"><ele>2535.53</ele><time>2026-05-12T12:35:18.000Z</time></trkpt>
        <trkpt lat="29.5335917" lon="103.3329275"><ele>2535.53</ele><time>2026-05-12T12:35:26.000Z</time></trkpt>
        <trkpt lat="29.5335443" lon="103.3328937"><ele>2537.26</ele><time>2026-05-12T12:35:34.000Z</time></trkpt>
        <trkpt lat="29.5335041" lon="103.332864"><ele>2538.22</ele><time>2026-05-12T12:35:42.000Z</time></trkpt>
        <trkpt lat="29.5334656" lon="103.3328321"><ele>2539.96</ele><time>2026-05-12T12:35:48.000Z</time></trkpt>
        <trkpt lat="29.5334272" lon="103.3327953"><ele>2541.98</ele><time>2026-05-12T12:36:00.000Z</time></trkpt>
        <trkpt lat="29.533387" lon="103.3327643"><ele>2544.54</ele><time>2026-05-12T12:36:12.000Z</time></trkpt>
        <trkpt lat="29.5333501" lon="103.3327283"><ele>2545.89</ele><time>2026-05-12T12:36:20.000Z</time></trkpt>
        <trkpt lat="29.5333066" lon="103.3327033"><ele>2546.85</ele><time>2026-05-12T12:36:30.000Z</time></trkpt>
        <trkpt lat="29.5332661" lon="103.3326748"><ele>2548.32</ele><time>2026-05-12T12:36:46.000Z</time></trkpt>
        <trkpt lat="29.5332275" lon="103.3326441"><ele>2550.56</ele><time>2026-05-12T12:37:00.000Z</time></trkpt>
        <trkpt lat="29.5331887" lon="103.3326168"><ele>2552.63</ele><time>2026-05-12T12:37:10.000Z</time></trkpt>
        <trkpt lat="29.5331509" lon="103.3325869"><ele>2554.04</ele><time>2026-05-12T12:37:20.000Z</time></trkpt>
        <trkpt lat="29.5331151" lon="103.332553"><ele>2555.4</ele><time>2026-05-12T12:37:30.000Z</time></trkpt>
        <trkpt lat="29.5330764" lon="103.3325106"><ele>2558.11</ele><time>2026-05-12T12:37:42.000Z</time></trkpt>
        <trkpt lat="29.5330375" lon="103.3324715"><ele>2560.87</ele><time>2026-05-12T12:37:54.000Z</time></trkpt>
        <trkpt lat="29.5330033" lon="103.332431"><ele>2562.19</ele><time>2026-05-12T12:38:02.000Z</time></trkpt>
        <trkpt lat="29.5329659" lon="103.3323903"><ele>2563.57</ele><time>2026-05-12T12:38:13.000Z</time></trkpt>
        <trkpt lat="29.5329234" lon="103.3323528"><ele>2565.96</ele><time>2026-05-12T12:38:23.000Z</time></trkpt>
        <trkpt lat="29.5328827" lon="103.3323143"><ele>2567.02</ele><time>2026-05-12T12:38:33.000Z</time></trkpt>
        <trkpt lat="29.5328556" lon="103.3322669"><ele>2568.19</ele><time>2026-05-12T12:38:45.000Z</time></trkpt>
        <trkpt lat="29.5328219" lon="103.3322254"><ele>2569.38</ele><time>2026-05-12T12:38:57.000Z</time></trkpt>
        <trkpt lat="29.5327837" lon="103.3321893"><ele>2570.82</ele><time>2026-05-12T12:39:07.000Z</time></trkpt>
        <trkpt lat="29.5327512" lon="103.3321412"><ele>2571.91</ele><time>2026-05-12T12:39:19.000Z</time></trkpt>
        <trkpt lat="29.5327396" lon="103.3320836"><ele>2574.21</ele><time>2026-05-12T12:39:35.000Z</time></trkpt>
        <trkpt lat="29.5327132" lon="103.3320358"><ele>2577.22</ele><time>2026-05-12T12:40:01.000Z</time></trkpt>
        <trkpt lat="29.5326721" lon="103.3320042"><ele>2579.74</ele><time>2026-05-12T12:40:11.000Z</time></trkpt>
        <trkpt lat="29.5326272" lon="103.3319866"><ele>2580.75</ele><time>2026-05-12T12:40:19.000Z</time></trkpt>
        <trkpt lat="29.5325863" lon="103.3319603"><ele>2582.45</ele><time>2026-05-12T12:40:29.000Z</time></trkpt>
        <trkpt lat="29.5325608" lon="103.3319125"><ele>2584.87</ele><time>2026-05-12T12:40:37.000Z</time></trkpt>
        <trkpt lat="29.5325551" lon="103.3318569"><ele>2586.51</ele><time>2026-05-12T12:40:47.000Z</time></trkpt>
        <trkpt lat="29.5325426" lon="103.3318054"><ele>2588.03</ele><time>2026-05-12T12:41:03.000Z</time></trkpt>
        <trkpt lat="29.5325113" lon="103.3317636"><ele>2589.95</ele><time>2026-05-12T12:41:13.000Z</time></trkpt>
        <trkpt lat="29.5325049" lon="103.3317137"><ele>2589.7</ele><time>2026-05-12T12:41:37.000Z</time></trkpt>
        <trkpt lat="29.5324825" lon="103.3316653"><ele>2590.7</ele><time>2026-05-12T12:41:53.000Z</time></trkpt>
        <trkpt lat="29.532442" lon="103.3316281"><ele>2593.41</ele><time>2026-05-12T12:42:07.000Z</time></trkpt>
        <trkpt lat="29.5324167" lon="103.3315826"><ele>2595.75</ele><time>2026-05-12T12:42:15.000Z</time></trkpt>
        <trkpt lat="29.5324117" lon="103.3315311"><ele>2597.86</ele><time>2026-05-12T12:42:31.000Z</time></trkpt>
        <trkpt lat="29.5324029" lon="103.3314739"><ele>2600.31</ele><time>2026-05-12T12:42:47.000Z</time></trkpt>
        <trkpt lat="29.5323946" lon="103.3314176"><ele>2602.88</ele><time>2026-05-12T12:42:59.000Z</time></trkpt>
        <trkpt lat="29.5323941" lon="103.3313543"><ele>2604.86</ele><time>2026-05-12T12:43:07.000Z</time></trkpt>
        <trkpt lat="29.5323646" lon="103.3313103"><ele>2607.73</ele><time>2026-05-12T12:43:17.000Z</time></trkpt>
        <trkpt lat="29.53232" lon="103.3312827"><ele>2610.07</ele><time>2026-05-12T12:43:27.000Z</time></trkpt>
        <trkpt lat="29.53232" lon="103.3312827"><ele>2610.07</ele><time>2026-05-12T12:43:27.000Z</time></trkpt>
        <trkpt lat="29.532309" lon="103.3311835"><ele>2618.22</ele><time>2026-05-12T12:43:40.000Z</time></trkpt>
        <trkpt lat="29.532309" lon="103.3311835"><ele>2618.22</ele><time>2026-05-12T12:44:03.000Z</time></trkpt>
        <trkpt lat="29.532309" lon="103.3311835"><ele>2618.22</ele><time>2026-05-12T12:44:38.000Z</time></trkpt>
        <trkpt lat="29.532309" lon="103.3311835"><ele>2618.22</ele><time>2026-05-12T12:45:22.000Z</time></trkpt>
        <trkpt lat="29.532309" lon="103.3311835"><ele>2618.22</ele><time>2026-05-12T12:45:46.000Z</time></trkpt>
        <trkpt lat="29.532309" lon="103.3311835"><ele>2618.22</ele><time>2026-05-12T12:46:48.000Z</time></trkpt>
        <trkpt lat="29.532309" lon="103.3311835"><ele>2618.22</ele><time>2026-05-12T12:47:12.000Z</time></trkpt>
        <trkpt lat="29.5322943" lon="103.33124"><ele>2618.22</ele><time>2026-05-12T12:47:14.000Z</time></trkpt>
        <trkpt lat="29.5322943" lon="103.33124"><ele>2618.22</ele><time>2026-05-12T12:47:31.000Z</time></trkpt>
        <trkpt lat="29.5322488" lon="103.3312495"><ele>2618.7</ele><time>2026-05-12T12:47:37.000Z</time></trkpt>
        <trkpt lat="29.5322169" lon="103.3312858"><ele>2619.65</ele><time>2026-05-12T12:47:45.000Z</time></trkpt>
        <trkpt lat="29.5322039" lon="103.3313416"><ele>2620.22</ele><time>2026-05-12T12:47:53.000Z</time></trkpt>
        <trkpt lat="29.5321916" lon="103.3314029"><ele>2621.89</ele><time>2026-05-12T12:48:03.000Z</time></trkpt>
        <trkpt lat="29.5321733" lon="103.3313815"><ele>2623.32</ele><time>2026-05-12T12:48:19.000Z</time></trkpt>
        <trkpt lat="29.532164" lon="103.3313678"><ele>2624.88</ele><time>2026-05-12T12:48:23.000Z</time></trkpt>
        <trkpt lat="29.5321549" lon="103.3313215"><ele>2625.23</ele><time>2026-05-12T12:48:31.000Z</time></trkpt>
        <trkpt lat="29.5321435" lon="103.3312644"><ele>2626.43</ele><time>2026-05-12T12:48:39.000Z</time></trkpt>
        <trkpt lat="29.5321363" lon="103.3312069"><ele>2628.1</ele><time>2026-05-12T12:48:49.000Z</time></trkpt>
        <trkpt lat="29.5321273" lon="103.3311459"><ele>2628.76</ele><time>2026-05-12T12:49:07.000Z</time></trkpt>
        <trkpt lat="29.5321093" lon="103.3310891"><ele>2630.54</ele><time>2026-05-12T12:49:19.000Z</time></trkpt>
        <trkpt lat="29.5321279" lon="103.3310327"><ele>2632.27</ele><time>2026-05-12T12:49:27.000Z</time></trkpt>
        <trkpt lat="29.5321408" lon="103.3309767"><ele>2633.66</ele><time>2026-05-12T12:49:35.000Z</time></trkpt>
        <trkpt lat="29.5321551" lon="103.3309209"><ele>2635.96</ele><time>2026-05-12T12:49:53.000Z</time></trkpt>
        <trkpt lat="29.5321585" lon="103.3308574"><ele>2636.83</ele><time>2026-05-12T12:50:01.000Z</time></trkpt>
        <trkpt lat="29.5321513" lon="103.3307979"><ele>2637.92</ele><time>2026-05-12T12:50:07.000Z</time></trkpt>
        <trkpt lat="29.532138" lon="103.3307366"><ele>2639.03</ele><time>2026-05-12T12:50:15.000Z</time></trkpt>
        <trkpt lat="29.532125" lon="103.3306799"><ele>2639.09</ele><time>2026-05-12T12:50:21.000Z</time></trkpt>
        <trkpt lat="29.532117" lon="103.3306226"><ele>2639.07</ele><time>2026-05-12T12:50:27.000Z</time></trkpt>
        <trkpt lat="29.5321174" lon="103.3305665"><ele>2639.5</ele><time>2026-05-12T12:50:35.000Z</time></trkpt>
        <trkpt lat="29.5321416" lon="103.3305164"><ele>2639.95</ele><time>2026-05-12T12:50:43.000Z</time></trkpt>
        <trkpt lat="29.5321639" lon="103.3304581"><ele>2643.21</ele><time>2026-05-12T12:50:55.000Z</time></trkpt>
        <trkpt lat="29.5321523" lon="103.3304064"><ele>2646.14</ele><time>2026-05-12T12:51:19.000Z</time></trkpt>
        <trkpt lat="29.5321121" lon="103.3304036"><ele>2646.08</ele><time>2026-05-12T12:51:31.000Z</time></trkpt>
        <trkpt lat="29.5320902" lon="103.3303643"><ele>2646.96</ele><time>2026-05-12T12:51:41.000Z</time></trkpt>
        <trkpt lat="29.532101" lon="103.3303121"><ele>2647.88</ele><time>2026-05-12T12:52:01.000Z</time></trkpt>
        <trkpt lat="29.5321228" lon="103.3302563"><ele>2651.02</ele><time>2026-05-12T12:52:11.000Z</time></trkpt>
        <trkpt lat="29.5321567" lon="103.3302138"><ele>2652.52</ele><time>2026-05-12T12:52:21.000Z</time></trkpt>
        <trkpt lat="29.5321567" lon="103.3302138"><ele>2652.52</ele><time>2026-05-12T12:53:10.000Z</time></trkpt>
        <trkpt lat="29.5321698" lon="103.3302682"><ele>2654.11</ele><time>2026-05-12T12:53:32.000Z</time></trkpt>
        <trkpt lat="29.5321698" lon="103.3302682"><ele>2654.11</ele><time>2026-05-12T12:53:35.000Z</time></trkpt>
        <trkpt lat="29.5321698" lon="103.3302682"><ele>2654.11</ele><time>2026-05-12T12:54:40.000Z</time></trkpt>
        <trkpt lat="29.532134" lon="103.3302351"><ele>2655.8</ele><time>2026-05-12T12:54:42.000Z</time></trkpt>
        <trkpt lat="29.532134" lon="103.3302351"><ele>2655.8</ele><time>2026-05-12T12:54:49.000Z</time></trkpt>
        <trkpt lat="29.5320867" lon="103.3302356"><ele>2656.01</ele><time>2026-05-12T12:55:03.000Z</time></trkpt>
        <trkpt lat="29.5320372" lon="103.3302528"><ele>2657.1</ele><time>2026-05-12T12:55:15.000Z</time></trkpt>
        <trkpt lat="29.5319848" lon="103.330254"><ele>2660.31</ele><time>2026-05-12T12:55:29.000Z</time></trkpt>
        <trkpt lat="29.5319376" lon="103.3302391"><ele>2662.92</ele><time>2026-05-12T12:55:37.000Z</time></trkpt>
        <trkpt lat="29.5318889" lon="103.330223"><ele>2665.73</ele><time>2026-05-12T12:55:47.000Z</time></trkpt>
        <trkpt lat="29.5318411" lon="103.3302171"><ele>2667.63</ele><time>2026-05-12T12:56:21.000Z</time></trkpt>
        <trkpt lat="29.5317942" lon="103.3301965"><ele>2670.14</ele><time>2026-05-12T12:56:31.000Z</time></trkpt>
        <trkpt lat="29.5317642" lon="103.3301469"><ele>2671.35</ele><time>2026-05-12T12:56:45.000Z</time></trkpt>
        <trkpt lat="29.5317234" lon="103.3301096"><ele>2673.2</ele><time>2026-05-12T12:56:53.000Z</time></trkpt>
        <trkpt lat="29.5316947" lon="103.330064"><ele>2674.89</ele><time>2026-05-12T12:57:05.000Z</time></trkpt>
        <trkpt lat="29.5316496" lon="103.3300399"><ele>2676.03</ele><time>2026-05-12T12:57:17.000Z</time></trkpt>
        <trkpt lat="29.5316088" lon="103.3300137"><ele>2678.14</ele><time>2026-05-12T12:57:31.000Z</time></trkpt>
        <trkpt lat="29.5315624" lon="103.3299992"><ele>2680.78</ele><time>2026-05-12T12:57:45.000Z</time></trkpt>
        <trkpt lat="29.5315173" lon="103.3300106"><ele>2683.34</ele><time>2026-05-12T12:57:55.000Z</time></trkpt>
        <trkpt lat="29.5314731" lon="103.3299988"><ele>2684.84</ele><time>2026-05-12T12:58:05.000Z</time></trkpt>
        <trkpt lat="29.5314433" lon="103.3299579"><ele>2685.9</ele><time>2026-05-12T12:58:17.000Z</time></trkpt>
        <trkpt lat="29.5314148" lon="103.3299093"><ele>2688.02</ele><time>2026-05-12T12:58:37.000Z</time></trkpt>
        <trkpt lat="29.5313837" lon="103.3298656"><ele>2692.82</ele><time>2026-05-12T12:58:51.000Z</time></trkpt>
        <trkpt lat="29.5313501" lon="103.329825"><ele>2698.39</ele><time>2026-05-12T12:59:09.000Z</time></trkpt>
        <trkpt lat="29.5313092" lon="103.3297993"><ele>2702.86</ele><time>2026-05-12T12:59:25.000Z</time></trkpt>
        <trkpt lat="29.5313092" lon="103.3297993"><ele>2702.86</ele><time>2026-05-12T13:00:54.000Z</time></trkpt>
        <trkpt lat="29.5312764" lon="103.3297622"><ele>2705.96</ele><time>2026-05-12T13:01:52.000Z</time></trkpt>
        <trkpt lat="29.5312764" lon="103.3297622"><ele>2705.96</ele><time>2026-05-12T13:01:56.000Z</time></trkpt>
        <trkpt lat="29.5312488" lon="103.3297132"><ele>2707.63</ele><time>2026-05-12T13:02:10.000Z</time></trkpt>
        <trkpt lat="29.5312336" lon="103.3296637"><ele>2709.28</ele><time>2026-05-12T13:02:24.000Z</time></trkpt>
        <trkpt lat="29.5312032" lon="103.3296248"><ele>2711.92</ele><time>2026-05-12T13:02:38.000Z</time></trkpt>
        <trkpt lat="29.5311747" lon="103.3295806"><ele>2714.36</ele><time>2026-05-12T13:02:50.000Z</time></trkpt>
        <trkpt lat="29.5311426" lon="103.3295343"><ele>2716.06</ele><time>2026-05-12T13:03:04.000Z</time></trkpt>
        <trkpt lat="29.5311237" lon="103.3294743"><ele>2717.95</ele><time>2026-05-12T13:03:16.000Z</time></trkpt>
        <trkpt lat="29.5310998" lon="103.329423"><ele>2720.01</ele><time>2026-05-12T13:03:24.000Z</time></trkpt>
        <trkpt lat="29.5310975" lon="103.3293692"><ele>2720.86</ele><time>2026-05-12T13:03:32.000Z</time></trkpt>
        <trkpt lat="29.5311092" lon="103.3293152"><ele>2722</ele><time>2026-05-12T13:03:38.000Z</time></trkpt>
        <trkpt lat="29.5311101" lon="103.329255"><ele>2724.83</ele><time>2026-05-12T13:03:46.000Z</time></trkpt>
        <trkpt lat="29.5311042" lon="103.3291996"><ele>2728.58</ele><time>2026-05-12T13:03:56.000Z</time></trkpt>
        <trkpt lat="29.5310833" lon="103.3291494"><ele>2729.78</ele><time>2026-05-12T13:04:04.000Z</time></trkpt>
        <trkpt lat="29.5310692" lon="103.3290939"><ele>2731.41</ele><time>2026-05-12T13:04:12.000Z</time></trkpt>
        <trkpt lat="29.5310648" lon="103.3290303"><ele>2732.07</ele><time>2026-05-12T13:04:20.000Z</time></trkpt>
        <trkpt lat="29.5310648" lon="103.3289637"><ele>2732.45</ele><time>2026-05-12T13:04:28.000Z</time></trkpt>
        <trkpt lat="29.5310753" lon="103.3289069"><ele>2733.1</ele><time>2026-05-12T13:04:36.000Z</time></trkpt>
        <trkpt lat="29.5310712" lon="103.3288522"><ele>2734.19</ele><time>2026-05-12T13:04:48.000Z</time></trkpt>
        <trkpt lat="29.5310824" lon="103.32879"><ele>2734.04</ele><time>2026-05-12T13:04:56.000Z</time></trkpt>
        <trkpt lat="29.5310968" lon="103.3287368"><ele>2736.68</ele><time>2026-05-12T13:05:02.000Z</time></trkpt>
        <trkpt lat="29.5310992" lon="103.3286821"><ele>2738.88</ele><time>2026-05-12T13:05:12.000Z</time></trkpt>
        <trkpt lat="29.5311255" lon="103.3286384"><ele>2741.3</ele><time>2026-05-12T13:05:22.000Z</time></trkpt>
        <trkpt lat="29.5311352" lon="103.3285887"><ele>2743.34</ele><time>2026-05-12T13:05:32.000Z</time></trkpt>
        <trkpt lat="29.5311549" lon="103.3285343"><ele>2743.4</ele><time>2026-05-12T13:05:42.000Z</time></trkpt>
        <trkpt lat="29.5311563" lon="103.3284806"><ele>2743.86</ele><time>2026-05-12T13:05:52.000Z</time></trkpt>
        <trkpt lat="29.5311648" lon="103.3284277"><ele>2744.91</ele><time>2026-05-12T13:06:00.000Z</time></trkpt>
        <trkpt lat="29.5311864" lon="103.3283728"><ele>2745.98</ele><time>2026-05-12T13:06:08.000Z</time></trkpt>
        <trkpt lat="29.5312086" lon="103.3283186"><ele>2746.31</ele><time>2026-05-12T13:06:14.000Z</time></trkpt>
        <trkpt lat="29.5312219" lon="103.3282546"><ele>2747.06</ele><time>2026-05-12T13:06:20.000Z</time></trkpt>
        <trkpt lat="29.5312386" lon="103.3281896"><ele>2748.57</ele><time>2026-05-12T13:06:26.000Z</time></trkpt>
        <trkpt lat="29.5312332" lon="103.3281351"><ele>2749.79</ele><time>2026-05-12T13:06:34.000Z</time></trkpt>
        <trkpt lat="29.53122" lon="103.3280721"><ele>2748.52</ele><time>2026-05-12T13:06:44.000Z</time></trkpt>
        <trkpt lat="29.5312186" lon="103.3280161"><ele>2747.48</ele><time>2026-05-12T13:06:50.000Z</time></trkpt>
        <trkpt lat="29.5312289" lon="103.3279562"><ele>2748.06</ele><time>2026-05-12T13:06:58.000Z</time></trkpt>
        <trkpt lat="29.5312177" lon="103.3278989"><ele>2748.75</ele><time>2026-05-12T13:07:08.000Z</time></trkpt>
        <trkpt lat="29.5312173" lon="103.3278387"><ele>2748.51</ele><time>2026-05-12T13:07:16.000Z</time></trkpt>
        <trkpt lat="29.5312253" lon="103.327781"><ele>2749.93</ele><time>2026-05-12T13:07:26.000Z</time></trkpt>
        <trkpt lat="29.5312123" lon="103.327723"><ele>2751.98</ele><time>2026-05-12T13:07:34.000Z</time></trkpt>
        <trkpt lat="29.5312128" lon="103.3276693"><ele>2752.92</ele><time>2026-05-12T13:08:02.000Z</time></trkpt>
        <trkpt lat="29.5312119" lon="103.327615"><ele>2754.96</ele><time>2026-05-12T13:08:16.000Z</time></trkpt>
        <trkpt lat="29.5312107" lon="103.3275594"><ele>2757.05</ele><time>2026-05-12T13:08:32.000Z</time></trkpt>
        <trkpt lat="29.5312049" lon="103.3275027"><ele>2757.84</ele><time>2026-05-12T13:08:42.000Z</time></trkpt>
        <trkpt lat="29.5312086" lon="103.3274421"><ele>2759.63</ele><time>2026-05-12T13:08:52.000Z</time></trkpt>
        <trkpt lat="29.531203" lon="103.3273814"><ele>2760.46</ele><time>2026-05-12T13:09:04.000Z</time></trkpt>
        <trkpt lat="29.531189" lon="103.3273288"><ele>2762.66</ele><time>2026-05-12T13:09:12.000Z</time></trkpt>
        <trkpt lat="29.531181" lon="103.3272698"><ele>2764.91</ele><time>2026-05-12T13:09:28.000Z</time></trkpt>
        <trkpt lat="29.531175" lon="103.3272105"><ele>2767.51</ele><time>2026-05-12T13:09:36.000Z</time></trkpt>
        <trkpt lat="29.5311719" lon="103.3271555"><ele>2769.72</ele><time>2026-05-12T13:09:52.000Z</time></trkpt>
        <trkpt lat="29.53114" lon="103.3271169"><ele>2770.87</ele><time>2026-05-12T13:10:00.000Z</time></trkpt>
        <trkpt lat="29.5310986" lon="103.3270867"><ele>2772.1</ele><time>2026-05-12T13:10:16.000Z</time></trkpt>
        <trkpt lat="29.5310986" lon="103.3270867"><ele>2772.1</ele><time>2026-05-12T13:10:40.000Z</time></trkpt>
        <trkpt lat="29.5310509" lon="103.3270636"><ele>2773.77</ele><time>2026-05-12T13:10:46.000Z</time></trkpt>
        <trkpt lat="29.5310509" lon="103.3270636"><ele>2773.77</ele><time>2026-05-12T13:10:54.000Z</time></trkpt>
        <trkpt lat="29.5310011" lon="103.3270538"><ele>2774.64</ele><time>2026-05-12T13:11:02.000Z</time></trkpt>
        <trkpt lat="29.5309577" lon="103.3270281"><ele>2774.92</ele><time>2026-05-12T13:11:10.000Z</time></trkpt>
        <trkpt lat="29.5309086" lon="103.3270102"><ele>2775.33</ele><time>2026-05-12T13:11:20.000Z</time></trkpt>
        <trkpt lat="29.5308638" lon="103.3269856"><ele>2776.82</ele><time>2026-05-12T13:11:28.000Z</time></trkpt>
        <trkpt lat="29.5308226" lon="103.3269568"><ele>2778.43</ele><time>2026-05-12T13:11:38.000Z</time></trkpt>
        <trkpt lat="29.5307987" lon="103.3269018"><ele>2779.47</ele><time>2026-05-12T13:11:48.000Z</time></trkpt>
        <trkpt lat="29.530786" lon="103.3268373"><ele>2781.52</ele><time>2026-05-12T13:11:56.000Z</time></trkpt>
        <trkpt lat="29.5307419" lon="103.3268205"><ele>2783.23</ele><time>2026-05-12T13:12:12.000Z</time></trkpt>
        <trkpt lat="29.5306941" lon="103.3268389"><ele>2785.56</ele><time>2026-05-12T13:12:30.000Z</time></trkpt>
        <trkpt lat="29.5306436" lon="103.3268627"><ele>2787.84</ele><time>2026-05-12T13:12:40.000Z</time></trkpt>
        <trkpt lat="29.5305985" lon="103.3268886"><ele>2789.54</ele><time>2026-05-12T13:12:48.000Z</time></trkpt>
        <trkpt lat="29.530553" lon="103.3269059"><ele>2791.15</ele><time>2026-05-12T13:12:56.000Z</time></trkpt>
        <trkpt lat="29.5305135" lon="103.3269323"><ele>2792.32</ele><time>2026-05-12T13:13:04.000Z</time></trkpt>
        <trkpt lat="29.5304667" lon="103.326953"><ele>2793.71</ele><time>2026-05-12T13:13:14.000Z</time></trkpt>
        <trkpt lat="29.5304175" lon="103.3269801"><ele>2795.62</ele><time>2026-05-12T13:13:24.000Z</time></trkpt>
        <trkpt lat="29.5303704" lon="103.3269978"><ele>2797.51</ele><time>2026-05-12T13:13:34.000Z</time></trkpt>
        <trkpt lat="29.5303222" lon="103.3270187"><ele>2799.29</ele><time>2026-05-12T13:13:44.000Z</time></trkpt>
        <trkpt lat="29.530276" lon="103.3270416"><ele>2801.38</ele><time>2026-05-12T13:13:52.000Z</time></trkpt>
        <trkpt lat="29.5302205" lon="103.3270628"><ele>2804.32</ele><time>2026-05-12T13:14:00.000Z</time></trkpt>
        <trkpt lat="29.5301684" lon="103.3270952"><ele>2806.73</ele><time>2026-05-12T13:14:08.000Z</time></trkpt>
        <trkpt lat="29.5301222" lon="103.3271348"><ele>2807.55</ele><time>2026-05-12T13:14:16.000Z</time></trkpt>
        <trkpt lat="29.5300769" lon="103.3271771"><ele>2808.49</ele><time>2026-05-12T13:14:24.000Z</time></trkpt>
        <trkpt lat="29.5300331" lon="103.3272144"><ele>2809.01</ele><time>2026-05-12T13:14:32.000Z</time></trkpt>
        <trkpt lat="29.5299928" lon="103.3272527"><ele>2809.02</ele><time>2026-05-12T13:14:41.000Z</time></trkpt>
        <trkpt lat="29.5299525" lon="103.3272811"><ele>2810.28</ele><time>2026-05-12T13:14:49.000Z</time></trkpt>
        <trkpt lat="29.5299158" lon="103.3273147"><ele>2812.11</ele><time>2026-05-12T13:14:59.000Z</time></trkpt>
        <trkpt lat="29.5298827" lon="103.3273621"><ele>2814.02</ele><time>2026-05-12T13:15:25.000Z</time></trkpt>
        <trkpt lat="29.5298517" lon="103.3274069"><ele>2813.05</ele><time>2026-05-12T13:15:31.000Z</time></trkpt>
        <trkpt lat="29.5298275" lon="103.3274587"><ele>2812.01</ele><time>2026-05-12T13:15:51.000Z</time></trkpt>
        <trkpt lat="29.5298075" lon="103.3275173"><ele>2812.4</ele><time>2026-05-12T13:15:59.000Z</time></trkpt>
        <trkpt lat="29.529785" lon="103.3275787"><ele>2812.95</ele><time>2026-05-12T13:16:07.000Z</time></trkpt>
        <trkpt lat="29.5297693" lon="103.3276362"><ele>2813.33</ele><time>2026-05-12T13:16:15.000Z</time></trkpt>
        <trkpt lat="29.5297484" lon="103.3276895"><ele>2813.51</ele><time>2026-05-12T13:16:25.000Z</time></trkpt>
        <trkpt lat="29.5297193" lon="103.3277361"><ele>2814.16</ele><time>2026-05-12T13:16:35.000Z</time></trkpt>
        <trkpt lat="29.5296801" lon="103.3277799"><ele>2814.5</ele><time>2026-05-12T13:16:43.000Z</time></trkpt>
        <trkpt lat="29.5296241" lon="103.3277957"><ele>2814.96</ele><time>2026-05-12T13:16:51.000Z</time></trkpt>
        <trkpt lat="29.5295642" lon="103.3278095"><ele>2815.11</ele><time>2026-05-12T13:16:59.000Z</time></trkpt>
        <trkpt lat="29.5295073" lon="103.3278077"><ele>2814.68</ele><time>2026-05-12T13:17:05.000Z</time></trkpt>
        <trkpt lat="29.5294525" lon="103.327798"><ele>2814.61</ele><time>2026-05-12T13:17:11.000Z</time></trkpt>
        <trkpt lat="29.5294036" lon="103.3277935"><ele>2814.83</ele><time>2026-05-12T13:17:17.000Z</time></trkpt>
        <trkpt lat="29.5293559" lon="103.3277885"><ele>2815.06</ele><time>2026-05-12T13:17:23.000Z</time></trkpt>
        <trkpt lat="29.5293067" lon="103.3277936"><ele>2815.21</ele><time>2026-05-12T13:17:35.000Z</time></trkpt>
        <trkpt lat="29.5292623" lon="103.327823"><ele>2816.33</ele><time>2026-05-12T13:17:43.000Z</time></trkpt>
        <trkpt lat="29.5292508" lon="103.3278758"><ele>2817.29</ele><time>2026-05-12T13:17:55.000Z</time></trkpt>
        <trkpt lat="29.529245" lon="103.3279364"><ele>2817.12</ele><time>2026-05-12T13:18:03.000Z</time></trkpt>
        <trkpt lat="29.5292356" lon="103.3279971"><ele>2817.55</ele><time>2026-05-12T13:18:11.000Z</time></trkpt>
        <trkpt lat="29.5292364" lon="103.3280533"><ele>2818.44</ele><time>2026-05-12T13:18:17.000Z</time></trkpt>
        <trkpt lat="29.5292164" lon="103.3281043"><ele>2819.4</ele><time>2026-05-12T13:18:23.000Z</time></trkpt>
        <trkpt lat="29.529191" lon="103.3281539"><ele>2819.54</ele><time>2026-05-12T13:18:29.000Z</time></trkpt>
        <trkpt lat="29.5291776" lon="103.3282083"><ele>2819.55</ele><time>2026-05-12T13:18:39.000Z</time></trkpt>
        <trkpt lat="29.5291736" lon="103.3282685"><ele>2820.37</ele><time>2026-05-12T13:18:49.000Z</time></trkpt>
        <trkpt lat="29.5291631" lon="103.3283236"><ele>2822.34</ele><time>2026-05-12T13:18:59.000Z</time></trkpt>
        <trkpt lat="29.5291512" lon="103.3283765"><ele>2824.86</ele><time>2026-05-12T13:19:11.000Z</time></trkpt>
        <trkpt lat="29.5291512" lon="103.3284322"><ele>2826.78</ele><time>2026-05-12T13:19:19.000Z</time></trkpt>
        <trkpt lat="29.5291328" lon="103.3284815"><ele>2829.59</ele><time>2026-05-12T13:19:27.000Z</time></trkpt>
        <trkpt lat="29.5291016" lon="103.3285279"><ele>2831.72</ele><time>2026-05-12T13:19:37.000Z</time></trkpt>
        <trkpt lat="29.5290787" lon="103.3285841"><ele>2833.26</ele><time>2026-05-12T13:19:51.000Z</time></trkpt>
        <trkpt lat="29.5290537" lon="103.328636"><ele>2834.76</ele><time>2026-05-12T13:19:59.000Z</time></trkpt>
        <trkpt lat="29.5290392" lon="103.3286865"><ele>2836.34</ele><time>2026-05-12T13:20:07.000Z</time></trkpt>
        <trkpt lat="29.5290175" lon="103.3287379"><ele>2838.18</ele><time>2026-05-12T13:20:17.000Z</time></trkpt>
        <trkpt lat="29.5289943" lon="103.3287851"><ele>2838.79</ele><time>2026-05-12T13:20:49.000Z</time></trkpt>
        <trkpt lat="29.5289778" lon="103.3288394"><ele>2839.41</ele><time>2026-05-12T13:20:55.000Z</time></trkpt>
        <trkpt lat="29.5289621" lon="103.3289"><ele>2839.89</ele><time>2026-05-12T13:21:01.000Z</time></trkpt>
        <trkpt lat="29.528931" lon="103.3289453"><ele>2841.22</ele><time>2026-05-12T13:21:09.000Z</time></trkpt>
        <trkpt lat="29.5288908" lon="103.3289812"><ele>2842.23</ele><time>2026-05-12T13:21:15.000Z</time></trkpt>
        <trkpt lat="29.5288609" lon="103.3290337"><ele>2843.61</ele><time>2026-05-12T13:21:31.000Z</time></trkpt>
        <trkpt lat="29.5288362" lon="103.3290811"><ele>2844.93</ele><time>2026-05-12T13:21:39.000Z</time></trkpt>
        <trkpt lat="29.5288172" lon="103.3291435"><ele>2846.11</ele><time>2026-05-12T13:21:45.000Z</time></trkpt>
        <trkpt lat="29.5287963" lon="103.3292006"><ele>2848.16</ele><time>2026-05-12T13:21:53.000Z</time></trkpt>
        <trkpt lat="29.5287568" lon="103.3292419"><ele>2849.55</ele><time>2026-05-12T13:22:01.000Z</time></trkpt>
        <trkpt lat="29.5287187" lon="103.3292875"><ele>2850.91</ele><time>2026-05-12T13:22:09.000Z</time></trkpt>
        <trkpt lat="29.5286897" lon="103.3293407"><ele>2851.85</ele><time>2026-05-12T13:22:17.000Z</time></trkpt>
        <trkpt lat="29.5286627" lon="103.329393"><ele>2852.76</ele><time>2026-05-12T13:22:23.000Z</time></trkpt>
        <trkpt lat="29.5286493" lon="103.3294579"><ele>2853.53</ele><time>2026-05-12T13:22:31.000Z</time></trkpt>
        <trkpt lat="29.5286401" lon="103.3295158"><ele>2854.43</ele><time>2026-05-12T13:22:37.000Z</time></trkpt>
        <trkpt lat="29.528636" lon="103.3295693"><ele>2854.97</ele><time>2026-05-12T13:22:43.000Z</time></trkpt>
        <trkpt lat="29.5286242" lon="103.3296202"><ele>2855.9</ele><time>2026-05-12T13:22:51.000Z</time></trkpt>
        <trkpt lat="29.5286157" lon="103.3296781"><ele>2857.21</ele><time>2026-05-12T13:23:10.000Z</time></trkpt>
        <trkpt lat="29.5286131" lon="103.3297328"><ele>2857.95</ele><time>2026-05-12T13:23:18.000Z</time></trkpt>
        <trkpt lat="29.5286075" lon="103.3297883"><ele>2858.02</ele><time>2026-05-12T13:23:24.000Z</time></trkpt>
        <trkpt lat="29.5285943" lon="103.3298422"><ele>2858.58</ele><time>2026-05-12T13:23:30.000Z</time></trkpt>
        <trkpt lat="29.5285846" lon="103.3298991"><ele>2858.73</ele><time>2026-05-12T13:23:36.000Z</time></trkpt>
        <trkpt lat="29.5285693" lon="103.3299603"><ele>2859.07</ele><time>2026-05-12T13:23:44.000Z</time></trkpt>
        <trkpt lat="29.5285449" lon="103.3300092"><ele>2859.05</ele><time>2026-05-12T13:23:50.000Z</time></trkpt>
        <trkpt lat="29.5285244" lon="103.3300635"><ele>2859.11</ele><time>2026-05-12T13:23:56.000Z</time></trkpt>
        <trkpt lat="29.5284793" lon="103.3301033"><ele>2859.59</ele><time>2026-05-12T13:24:04.000Z</time></trkpt>
        <trkpt lat="29.5284331" lon="103.3301399"><ele>2860.84</ele><time>2026-05-12T13:24:12.000Z</time></trkpt>
        <trkpt lat="29.5283884" lon="103.3301751"><ele>2861.44</ele><time>2026-05-12T13:24:20.000Z</time></trkpt>
        <trkpt lat="29.5283934" lon="103.3302213"><ele>2861.68</ele><time>2026-05-12T13:24:36.000Z</time></trkpt>
        <trkpt lat="29.5283867" lon="103.3302794"><ele>2860.32</ele><time>2026-05-12T13:24:44.000Z</time></trkpt>
        <trkpt lat="29.52837" lon="103.3303387"><ele>2859.63</ele><time>2026-05-12T13:24:50.000Z</time></trkpt>
        <trkpt lat="29.5283541" lon="103.3303927"><ele>2859.62</ele><time>2026-05-12T13:24:56.000Z</time></trkpt>
        <trkpt lat="29.5283181" lon="103.3304308"><ele>2859.45</ele><time>2026-05-12T13:25:02.000Z</time></trkpt>
        <trkpt lat="29.5283181" lon="103.3304308"><ele>2859.45</ele><time>2026-05-12T13:25:34.000Z</time></trkpt>
        <trkpt lat="29.5283013" lon="103.3304807"><ele>2860.19</ele><time>2026-05-12T13:25:40.000Z</time></trkpt>
        <trkpt lat="29.5283013" lon="103.3304807"><ele>2860.19</ele><time>2026-05-12T13:25:42.000Z</time></trkpt>
        <trkpt lat="29.5283072" lon="103.3305318"><ele>2860.38</ele><time>2026-05-12T13:25:54.000Z</time></trkpt>
        <trkpt lat="29.5283043" lon="103.3305955"><ele>2861.28</ele><time>2026-05-12T13:26:08.000Z</time></trkpt>
        <trkpt lat="29.5283018" lon="103.3306547"><ele>2863.26</ele><time>2026-05-12T13:26:16.000Z</time></trkpt>
        <trkpt lat="29.5282757" lon="103.3306965"><ele>2863</ele><time>2026-05-12T13:26:24.000Z</time></trkpt>
        <trkpt lat="29.5282311" lon="103.3307374"><ele>2864.79</ele><time>2026-05-12T13:26:32.000Z</time></trkpt>
        <trkpt lat="29.5281927" lon="103.3307762"><ele>2866.23</ele><time>2026-05-12T13:26:40.000Z</time></trkpt>
        <trkpt lat="29.5281522" lon="103.3308145"><ele>2867.48</ele><time>2026-05-12T13:26:48.000Z</time></trkpt>
        <trkpt lat="29.5281135" lon="103.330848"><ele>2868.03</ele><time>2026-05-12T13:26:54.000Z</time></trkpt>
        <trkpt lat="29.5280919" lon="103.3308952"><ele>2868.42</ele><time>2026-05-12T13:27:14.000Z</time></trkpt>
        <trkpt lat="29.5280801" lon="103.3309483"><ele>2868.77</ele><time>2026-05-12T13:27:22.000Z</time></trkpt>
        <trkpt lat="29.5280602" lon="103.3309983"><ele>2869.85</ele><time>2026-05-12T13:27:30.000Z</time></trkpt>
        <trkpt lat="29.5280376" lon="103.3310535"><ele>2871.02</ele><time>2026-05-12T13:27:38.000Z</time></trkpt>
        <trkpt lat="29.5280257" lon="103.3311121"><ele>2872.11</ele><time>2026-05-12T13:27:48.000Z</time></trkpt>
        <trkpt lat="29.5280126" lon="103.331167"><ele>2874.17</ele><time>2026-05-12T13:27:54.000Z</time></trkpt>
        <trkpt lat="29.5279923" lon="103.3312246"><ele>2876.41</ele><time>2026-05-12T13:28:00.000Z</time></trkpt>
        <trkpt lat="29.5279584" lon="103.3312724"><ele>2879.28</ele><time>2026-05-12T13:28:12.000Z</time></trkpt>
        <trkpt lat="29.5279127" lon="103.331313"><ele>2880.67</ele><time>2026-05-12T13:28:20.000Z</time></trkpt>
        <trkpt lat="29.5278732" lon="103.3313522"><ele>2882.07</ele><time>2026-05-12T13:28:26.000Z</time></trkpt>
        <trkpt lat="29.5278334" lon="103.331384"><ele>2882.95</ele><time>2026-05-12T13:28:32.000Z</time></trkpt>
        <trkpt lat="29.5278137" lon="103.3314356"><ele>2884.64</ele><time>2026-05-12T13:28:38.000Z</time></trkpt>
        <trkpt lat="29.5277933" lon="103.3314874"><ele>2885.3</ele><time>2026-05-12T13:28:50.000Z</time></trkpt>
        <trkpt lat="29.5277737" lon="103.3315389"><ele>2886.49</ele><time>2026-05-12T13:29:00.000Z</time></trkpt>
        <trkpt lat="29.527744" lon="103.3315924"><ele>2886.73</ele><time>2026-05-12T13:29:10.000Z</time></trkpt>
        <trkpt lat="29.5277225" lon="103.3316486"><ele>2888.66</ele><time>2026-05-12T13:29:18.000Z</time></trkpt>
        <trkpt lat="29.5277225" lon="103.3316486"><ele>2888.66</ele><time>2026-05-12T13:29:58.000Z</time></trkpt>
        <trkpt lat="29.5277225" lon="103.3316486"><ele>2888.66</ele><time>2026-05-12T13:30:42.000Z</time></trkpt>
        <trkpt lat="29.5277225" lon="103.3316486"><ele>2888.66</ele><time>2026-05-12T13:31:04.000Z</time></trkpt>
        <trkpt lat="29.5277225" lon="103.3316486"><ele>2888.66</ele><time>2026-05-12T13:33:22.000Z</time></trkpt>
        <trkpt lat="29.5277225" lon="103.3316486"><ele>2888.66</ele><time>2026-05-12T13:34:12.000Z</time></trkpt>
        <trkpt lat="29.5277201" lon="103.3317076"><ele>2890.56</ele><time>2026-05-12T13:35:06.000Z</time></trkpt>
        <trkpt lat="29.5277201" lon="103.3317076"><ele>2890.56</ele><time>2026-05-12T13:35:06.000Z</time></trkpt>
        <trkpt lat="29.5277302" lon="103.3317778"><ele>2890.47</ele><time>2026-05-12T13:35:14.000Z</time></trkpt>
        <trkpt lat="29.5277266" lon="103.3318373"><ele>2890.93</ele><time>2026-05-12T13:35:20.000Z</time></trkpt>
        <trkpt lat="29.5277199" lon="103.3318987"><ele>2891.72</ele><time>2026-05-12T13:35:26.000Z</time></trkpt>
        <trkpt lat="29.5277147" lon="103.3319659"><ele>2892.66</ele><time>2026-05-12T13:35:36.000Z</time></trkpt>
        <trkpt lat="29.5276912" lon="103.3320149"><ele>2893.58</ele><time>2026-05-12T13:35:40.000Z</time></trkpt>
        <trkpt lat="29.5276568" lon="103.3320497"><ele>2893.99</ele><time>2026-05-12T13:35:46.000Z</time></trkpt>
        <trkpt lat="29.5276079" lon="103.332082"><ele>2894.97</ele><time>2026-05-12T13:35:52.000Z</time></trkpt>
        <trkpt lat="29.5275603" lon="103.3321092"><ele>2896.48</ele><time>2026-05-12T13:36:04.000Z</time></trkpt>
        <trkpt lat="29.5275234" lon="103.3321484"><ele>2897.21</ele><time>2026-05-12T13:36:12.000Z</time></trkpt>
        <trkpt lat="29.5275106" lon="103.3322044"><ele>2897.66</ele><time>2026-05-12T13:36:22.000Z</time></trkpt>
        <trkpt lat="29.5275434" lon="103.3322554"><ele>2899.59</ele><time>2026-05-12T13:36:28.000Z</time></trkpt>
        <trkpt lat="29.5275699" lon="103.3323053"><ele>2901.31</ele><time>2026-05-12T13:36:36.000Z</time></trkpt>
        <trkpt lat="29.5275891" lon="103.3323601"><ele>2902.96</ele><time>2026-05-12T13:36:46.000Z</time></trkpt>
        <trkpt lat="29.5275668" lon="103.3323996"><ele>2903.39</ele><time>2026-05-12T13:36:56.000Z</time></trkpt>
        <trkpt lat="29.5275246" lon="103.3324203"><ele>2903.69</ele><time>2026-05-12T13:37:02.000Z</time></trkpt>
        <trkpt lat="29.5274851" lon="103.3324521"><ele>2903.63</ele><time>2026-05-12T13:37:08.000Z</time></trkpt>
        <trkpt lat="29.5274454" lon="103.3324957"><ele>2903.64</ele><time>2026-05-12T13:37:20.000Z</time></trkpt>
        <trkpt lat="29.5274011" lon="103.3325301"><ele>2905.54</ele><time>2026-05-12T13:37:32.000Z</time></trkpt>
        <trkpt lat="29.5273444" lon="103.3325292"><ele>2907.76</ele><time>2026-05-12T13:37:40.000Z</time></trkpt>
        <trkpt lat="29.5272997" lon="103.3324947"><ele>2908.66</ele><time>2026-05-12T13:37:46.000Z</time></trkpt>
        <trkpt lat="29.5272583" lon="103.3324473"><ele>2908.89</ele><time>2026-05-12T13:38:00.000Z</time></trkpt>
        <trkpt lat="29.5272389" lon="103.3323825"><ele>2908.63</ele><time>2026-05-12T13:38:10.000Z</time></trkpt>
        <trkpt lat="29.5272147" lon="103.332329"><ele>2909.21</ele><time>2026-05-12T13:38:14.000Z</time></trkpt>
        <trkpt lat="29.527164" lon="103.332277"><ele>2910</ele><time>2026-05-12T13:38:18.000Z</time></trkpt>
        <trkpt lat="29.5271105" lon="103.3322768"><ele>2910.52</ele><time>2026-05-12T13:38:28.000Z</time></trkpt>
        <trkpt lat="29.5270709" lon="103.3323195"><ele>2910.3</ele><time>2026-05-12T13:38:36.000Z</time></trkpt>
        <trkpt lat="29.5270448" lon="103.332377"><ele>2909.97</ele><time>2026-05-12T13:38:44.000Z</time></trkpt>
        <trkpt lat="29.5270258" lon="103.332445"><ele>2911.94</ele><time>2026-05-12T13:38:52.000Z</time></trkpt>
        <trkpt lat="29.5270263" lon="103.3325119"><ele>2913.08</ele><time>2026-05-12T13:39:00.000Z</time></trkpt>
        <trkpt lat="29.5270461" lon="103.3325763"><ele>2913.62</ele><time>2026-05-12T13:39:08.000Z</time></trkpt>
        <trkpt lat="29.5270648" lon="103.3326313"><ele>2915.81</ele><time>2026-05-12T13:39:14.000Z</time></trkpt>
        <trkpt lat="29.5270838" lon="103.3326896"><ele>2917.78</ele><time>2026-05-12T13:39:20.000Z</time></trkpt>
        <trkpt lat="29.5270797" lon="103.3327502"><ele>2919.68</ele><time>2026-05-12T13:39:26.000Z</time></trkpt>
        <trkpt lat="29.527083" lon="103.3328153"><ele>2921.31</ele><time>2026-05-12T13:39:32.000Z</time></trkpt>
        <trkpt lat="29.5270584" lon="103.3328679"><ele>2923.56</ele><time>2026-05-12T13:39:42.000Z</time></trkpt>
        <trkpt lat="29.5270324" lon="103.3329278"><ele>2923.72</ele><time>2026-05-12T13:39:50.000Z</time></trkpt>
        <trkpt lat="29.527035" lon="103.3329927"><ele>2924.4</ele><time>2026-05-12T13:39:58.000Z</time></trkpt>
        <trkpt lat="29.5270666" lon="103.3330491"><ele>2924.84</ele><time>2026-05-12T13:40:04.000Z</time></trkpt>
        <trkpt lat="29.5270952" lon="103.333106"><ele>2925.29</ele><time>2026-05-12T13:40:10.000Z</time></trkpt>
        <trkpt lat="29.5271168" lon="103.3331592"><ele>2925.95</ele><time>2026-05-12T13:40:18.000Z</time></trkpt>
        <trkpt lat="29.5271346" lon="103.3332092"><ele>2926.11</ele><time>2026-05-12T13:40:26.000Z</time></trkpt>
        <trkpt lat="29.5271403" lon="103.3332673"><ele>2925.89</ele><time>2026-05-12T13:40:30.000Z</time></trkpt>
        <trkpt lat="29.5271218" lon="103.3333151"><ele>2927.34</ele><time>2026-05-12T13:40:36.000Z</time></trkpt>
        <trkpt lat="29.5270767" lon="103.3333387"><ele>2928.21</ele><time>2026-05-12T13:40:44.000Z</time></trkpt>
        <trkpt lat="29.5270378" lon="103.3333726"><ele>2927.02</ele><time>2026-05-12T13:40:50.000Z</time></trkpt>
        <trkpt lat="29.5269965" lon="103.3334161"><ele>2926.65</ele><time>2026-05-12T13:40:56.000Z</time></trkpt>
        <trkpt lat="29.5269483" lon="103.3334438"><ele>2927.87</ele><time>2026-05-12T13:41:02.000Z</time></trkpt>
        <trkpt lat="29.5268998" lon="103.3334718"><ele>2928.51</ele><time>2026-05-12T13:41:10.000Z</time></trkpt>
        <trkpt lat="29.5268459" lon="103.3334883"><ele>2929.63</ele><time>2026-05-12T13:41:20.000Z</time></trkpt>
        <trkpt lat="29.5267917" lon="103.3334959"><ele>2930.76</ele><time>2026-05-12T13:41:30.000Z</time></trkpt>
        <trkpt lat="29.5267496" lon="103.3335209"><ele>2932.35</ele><time>2026-05-12T13:41:36.000Z</time></trkpt>
        <trkpt lat="29.5267056" lon="103.3335161"><ele>2933.44</ele><time>2026-05-12T13:41:48.000Z</time></trkpt>
        <trkpt lat="29.5266634" lon="103.3335283"><ele>2934.52</ele><time>2026-05-12T13:42:00.000Z</time></trkpt>
        <trkpt lat="29.5266142" lon="103.33354"><ele>2935.84</ele><time>2026-05-12T13:42:12.000Z</time></trkpt>
        <trkpt lat="29.5265729" lon="103.3335716"><ele>2938.39</ele><time>2026-05-12T13:42:26.000Z</time></trkpt>
        <trkpt lat="29.5265285" lon="103.3335945"><ele>2940.25</ele><time>2026-05-12T13:42:34.000Z</time></trkpt>
        <trkpt lat="29.5264826" lon="103.3336036"><ele>2941.42</ele><time>2026-05-12T13:42:40.000Z</time></trkpt>
        <trkpt lat="29.5264353" lon="103.3336226"><ele>2942.55</ele><time>2026-05-12T13:42:50.000Z</time></trkpt>
        <trkpt lat="29.526396" lon="103.3336548"><ele>2944.08</ele><time>2026-05-12T13:42:58.000Z</time></trkpt>
        <trkpt lat="29.5263561" lon="103.3336855"><ele>2945.04</ele><time>2026-05-12T13:43:08.000Z</time></trkpt>
        <trkpt lat="29.5263062" lon="103.3337149"><ele>2946.22</ele><time>2026-05-12T13:43:18.000Z</time></trkpt>
        <trkpt lat="29.5262654" lon="103.333747"><ele>2946.51</ele><time>2026-05-12T13:43:24.000Z</time></trkpt>
        <trkpt lat="29.5262216" lon="103.3337874"><ele>2947.05</ele><time>2026-05-12T13:43:30.000Z</time></trkpt>
        <trkpt lat="29.5261802" lon="103.333821"><ele>2948.91</ele><time>2026-05-12T13:43:36.000Z</time></trkpt>
        <trkpt lat="29.5261436" lon="103.3338538"><ele>2949.43</ele><time>2026-05-12T13:43:42.000Z</time></trkpt>
        <trkpt lat="29.5260992" lon="103.3338908"><ele>2949.84</ele><time>2026-05-12T13:43:52.000Z</time></trkpt>
        <trkpt lat="29.5260507" lon="103.3339083"><ele>2951.62</ele><time>2026-05-12T13:44:00.000Z</time></trkpt>
        <trkpt lat="29.5260034" lon="103.3339404"><ele>2953.39</ele><time>2026-05-12T13:44:08.000Z</time></trkpt>
        <trkpt lat="29.5259544" lon="103.3339356"><ele>2954.7</ele><time>2026-05-12T13:44:16.000Z</time></trkpt>
        <trkpt lat="29.5259077" lon="103.3339599"><ele>2955.21</ele><time>2026-05-12T13:44:24.000Z</time></trkpt>
        <trkpt lat="29.5258541" lon="103.333963"><ele>2955.64</ele><time>2026-05-12T13:44:32.000Z</time></trkpt>
        <trkpt lat="29.5258143" lon="103.3339915"><ele>2956.2</ele><time>2026-05-12T13:44:44.000Z</time></trkpt>
        <trkpt lat="29.5257768" lon="103.3340302"><ele>2956.94</ele><time>2026-05-12T13:44:52.000Z</time></trkpt>
        <trkpt lat="29.5257436" lon="103.3340694"><ele>2957.78</ele><time>2026-05-12T13:45:22.000Z</time></trkpt>
        <trkpt lat="29.5257072" lon="103.3341083"><ele>2958.5</ele><time>2026-05-12T13:45:32.000Z</time></trkpt>
        <trkpt lat="29.5256685" lon="103.334138"><ele>2959.13</ele><time>2026-05-12T13:45:38.000Z</time></trkpt>
        <trkpt lat="29.5256258" lon="103.3341761"><ele>2960.07</ele><time>2026-05-12T13:45:46.000Z</time></trkpt>
        <trkpt lat="29.525582" lon="103.334204"><ele>2961.14</ele><time>2026-05-12T13:45:56.000Z</time></trkpt>
        <trkpt lat="29.5255477" lon="103.3342527"><ele>2961.85</ele><time>2026-05-12T13:46:02.000Z</time></trkpt>
        <trkpt lat="29.5255143" lon="103.3343076"><ele>2962.56</ele><time>2026-05-12T13:46:08.000Z</time></trkpt>
        <trkpt lat="29.5254783" lon="103.3343468"><ele>2962.85</ele><time>2026-05-12T13:46:16.000Z</time></trkpt>
        <trkpt lat="29.5254559" lon="103.3343977"><ele>2962.55</ele><time>2026-05-12T13:46:22.000Z</time></trkpt>
        <trkpt lat="29.5254372" lon="103.3344529"><ele>2963.22</ele><time>2026-05-12T13:46:30.000Z</time></trkpt>
        <trkpt lat="29.5254089" lon="103.3344992"><ele>2963.98</ele><time>2026-05-12T13:46:38.000Z</time></trkpt>
        <trkpt lat="29.5253793" lon="103.3345404"><ele>2964.83</ele><time>2026-05-12T13:46:44.000Z</time></trkpt>
        <trkpt lat="29.5253384" lon="103.3345703"><ele>2966.25</ele><time>2026-05-12T13:46:52.000Z</time></trkpt>
        <trkpt lat="29.5253072" lon="103.3346202"><ele>2967.09</ele><time>2026-05-12T13:47:00.000Z</time></trkpt>
        <trkpt lat="29.5252785" lon="103.3346735"><ele>2968.06</ele><time>2026-05-12T13:47:10.000Z</time></trkpt>
        <trkpt lat="29.5252369" lon="103.3347135"><ele>2968.64</ele><time>2026-05-12T13:47:20.000Z</time></trkpt>
        <trkpt lat="29.5251887" lon="103.3347237"><ele>2968.48</ele><time>2026-05-12T13:47:30.000Z</time></trkpt>
        <trkpt lat="29.5251379" lon="103.3347406"><ele>2969.53</ele><time>2026-05-12T13:47:38.000Z</time></trkpt>
        <trkpt lat="29.525095" lon="103.3347699"><ele>2971.44</ele><time>2026-05-12T13:47:46.000Z</time></trkpt>
        <trkpt lat="29.5250573" lon="103.3348056"><ele>2973.64</ele><time>2026-05-12T13:47:56.000Z</time></trkpt>
        <trkpt lat="29.5250131" lon="103.3348377"><ele>2976.03</ele><time>2026-05-12T13:48:06.000Z</time></trkpt>
        <trkpt lat="29.5249699" lon="103.3348281"><ele>2978.37</ele><time>2026-05-12T13:48:34.000Z</time></trkpt>
        <trkpt lat="29.5249175" lon="103.3348183"><ele>2979.82</ele><time>2026-05-12T13:48:42.000Z</time></trkpt>
        <trkpt lat="29.5249175" lon="103.3348183"><ele>2979.82</ele><time>2026-05-12T13:49:38.000Z</time></trkpt>
        <trkpt lat="29.5249175" lon="103.3348183"><ele>2979.82</ele><time>2026-05-12T13:51:08.000Z</time></trkpt>
        <trkpt lat="29.5249175" lon="103.3348183"><ele>2979.82</ele><time>2026-05-12T13:51:30.000Z</time></trkpt>
        <trkpt lat="29.5249175" lon="103.3348183"><ele>2979.82</ele><time>2026-05-12T13:53:42.000Z</time></trkpt>
        <trkpt lat="29.5249175" lon="103.3348183"><ele>2979.82</ele><time>2026-05-12T13:54:04.000Z</time></trkpt>
        <trkpt lat="29.5249175" lon="103.3348183"><ele>2979.82</ele><time>2026-05-12T13:55:16.000Z</time></trkpt>
        <trkpt lat="29.5249175" lon="103.3348183"><ele>2979.82</ele><time>2026-05-12T13:56:10.000Z</time></trkpt>
        <trkpt lat="29.5248725" lon="103.3347692"><ele>2980.92</ele><time>2026-05-12T13:56:14.000Z</time></trkpt>
        <trkpt lat="29.5248725" lon="103.3347692"><ele>2980.92</ele><time>2026-05-12T13:56:36.000Z</time></trkpt>
        <trkpt lat="29.5248228" lon="103.3347631"><ele>2981.56</ele><time>2026-05-12T13:56:42.000Z</time></trkpt>
        <trkpt lat="29.5247724" lon="103.3347555"><ele>2981.59</ele><time>2026-05-12T13:56:48.000Z</time></trkpt>
        <trkpt lat="29.5247214" lon="103.334759"><ele>2981.79</ele><time>2026-05-12T13:56:58.000Z</time></trkpt>
        <trkpt lat="29.5246718" lon="103.3347482"><ele>2983.97</ele><time>2026-05-12T13:57:10.000Z</time></trkpt>
        <trkpt lat="29.5246266" lon="103.334757"><ele>2985.44</ele><time>2026-05-12T13:57:18.000Z</time></trkpt>
        <trkpt lat="29.5245903" lon="103.3347901"><ele>2985.92</ele><time>2026-05-12T13:57:24.000Z</time></trkpt>
        <trkpt lat="29.524562" lon="103.3348376"><ele>2986.34</ele><time>2026-05-12T13:57:30.000Z</time></trkpt>
        <trkpt lat="29.5245174" lon="103.3348582"><ele>2986.45</ele><time>2026-05-12T13:57:36.000Z</time></trkpt>
        <trkpt lat="29.5244752" lon="103.3348859"><ele>2986.38</ele><time>2026-05-12T13:57:44.000Z</time></trkpt>
        <trkpt lat="29.5244292" lon="103.3349175"><ele>2985.4</ele><time>2026-05-12T13:57:50.000Z</time></trkpt>
        <trkpt lat="29.5243766" lon="103.3349465"><ele>2985.97</ele><time>2026-05-12T13:57:56.000Z</time></trkpt>
        <trkpt lat="29.5243264" lon="103.3349645"><ele>2987.05</ele><time>2026-05-12T13:58:02.000Z</time></trkpt>
        <trkpt lat="29.5242703" lon="103.3349797"><ele>2988.62</ele><time>2026-05-12T13:58:10.000Z</time></trkpt>
        <trkpt lat="29.5242285" lon="103.3349492"><ele>2989.46</ele><time>2026-05-12T13:58:16.000Z</time></trkpt>
        <trkpt lat="29.5242152" lon="103.3348894"><ele>2990.03</ele><time>2026-05-12T13:58:22.000Z</time></trkpt>
        <trkpt lat="29.52421" lon="103.3348165"><ele>2990.24</ele><time>2026-05-12T13:58:28.000Z</time></trkpt>
        <trkpt lat="29.5241647" lon="103.3347952"><ele>2990.35</ele><time>2026-05-12T13:58:36.000Z</time></trkpt>
        <trkpt lat="29.5241219" lon="103.3348361"><ele>2990.29</ele><time>2026-05-12T13:58:42.000Z</time></trkpt>
        <trkpt lat="29.5240845" lon="103.3348959"><ele>2990.43</ele><time>2026-05-12T13:58:48.000Z</time></trkpt>
        <trkpt lat="29.5240271" lon="103.3349343"><ele>2989.99</ele><time>2026-05-12T13:58:54.000Z</time></trkpt>
        <trkpt lat="29.523975" lon="103.3349488"><ele>2990.49</ele><time>2026-05-12T13:58:58.000Z</time></trkpt>
        <trkpt lat="29.5239277" lon="103.3349571"><ele>2991.19</ele><time>2026-05-12T13:59:04.000Z</time></trkpt>
        <trkpt lat="29.523877" lon="103.3349471"><ele>2991.44</ele><time>2026-05-12T13:59:12.000Z</time></trkpt>
        <trkpt lat="29.5238211" lon="103.3349276"><ele>2991.63</ele><time>2026-05-12T13:59:18.000Z</time></trkpt>
        <trkpt lat="29.5237597" lon="103.3349136"><ele>2991.51</ele><time>2026-05-12T13:59:24.000Z</time></trkpt>
        <trkpt lat="29.5237059" lon="103.3349007"><ele>2991.3</ele><time>2026-05-12T13:59:32.000Z</time></trkpt>
        <trkpt lat="29.5236569" lon="103.3348904"><ele>2991.44</ele><time>2026-05-12T13:59:38.000Z</time></trkpt>
        <trkpt lat="29.5236123" lon="103.3348966"><ele>2991.26</ele><time>2026-05-12T13:59:44.000Z</time></trkpt>
        <trkpt lat="29.5235683" lon="103.3349078"><ele>2991.72</ele><time>2026-05-12T13:59:56.000Z</time></trkpt>
        <trkpt lat="29.5235242" lon="103.3349029"><ele>2991.6</ele><time>2026-05-12T14:00:14.000Z</time></trkpt>
        <trkpt lat="29.5234773" lon="103.3348994"><ele>2991.83</ele><time>2026-05-12T14:00:28.000Z</time></trkpt>
        <trkpt lat="29.5234307" lon="103.3348861"><ele>2992.84</ele><time>2026-05-12T14:00:36.000Z</time></trkpt>
        <trkpt lat="29.5233859" lon="103.3348724"><ele>2993.5</ele><time>2026-05-12T14:00:42.000Z</time></trkpt>
        <trkpt lat="29.5233391" lon="103.3348526"><ele>2994.04</ele><time>2026-05-12T14:00:50.000Z</time></trkpt>
        <trkpt lat="29.523286" lon="103.3348361"><ele>2994.63</ele><time>2026-05-12T14:00:58.000Z</time></trkpt>
        <trkpt lat="29.5232339" lon="103.3348216"><ele>2995.67</ele><time>2026-05-12T14:01:06.000Z</time></trkpt>
        <trkpt lat="29.5231874" lon="103.334807"><ele>2996.07</ele><time>2026-05-12T14:01:12.000Z</time></trkpt>
        <trkpt lat="29.5231398" lon="103.3347945"><ele>2996.56</ele><time>2026-05-12T14:01:18.000Z</time></trkpt>
        <trkpt lat="29.5230908" lon="103.3347752"><ele>2997.17</ele><time>2026-05-12T14:01:26.000Z</time></trkpt>
        <trkpt lat="29.5230419" lon="103.3347629"><ele>2997.08</ele><time>2026-05-12T14:01:38.000Z</time></trkpt>
        <trkpt lat="29.5229912" lon="103.334764"><ele>2997.19</ele><time>2026-05-12T14:01:48.000Z</time></trkpt>
        <trkpt lat="29.5229393" lon="103.3347694"><ele>2997.28</ele><time>2026-05-12T14:01:56.000Z</time></trkpt>
        <trkpt lat="29.5228881" lon="103.3347769"><ele>2997.61</ele><time>2026-05-12T14:02:02.000Z</time></trkpt>
        <trkpt lat="29.522839" lon="103.3347799"><ele>2998.21</ele><time>2026-05-12T14:02:16.000Z</time></trkpt>
        <trkpt lat="29.522788" lon="103.3347857"><ele>3000.03</ele><time>2026-05-12T14:02:30.000Z</time></trkpt>
        <trkpt lat="29.5227345" lon="103.334795"><ele>3001.2</ele><time>2026-05-12T14:02:40.000Z</time></trkpt>
        <trkpt lat="29.5226837" lon="103.3348233"><ele>3002</ele><time>2026-05-12T14:02:51.000Z</time></trkpt>
        <trkpt lat="29.5226693" lon="103.334875"><ele>3002.66</ele><time>2026-05-12T14:02:59.000Z</time></trkpt>
        <trkpt lat="29.5226593" lon="103.334941"><ele>3003.4</ele><time>2026-05-12T14:03:07.000Z</time></trkpt>
        <trkpt lat="29.5226562" lon="103.3350104"><ele>3003.91</ele><time>2026-05-12T14:03:15.000Z</time></trkpt>
        <trkpt lat="29.522664" lon="103.3350788"><ele>3004.63</ele><time>2026-05-12T14:03:21.000Z</time></trkpt>
        <trkpt lat="29.5226844" lon="103.3351365"><ele>3005.59</ele><time>2026-05-12T14:03:31.000Z</time></trkpt>
        <trkpt lat="29.5226992" lon="103.3351889"><ele>3007.54</ele><time>2026-05-12T14:03:43.000Z</time></trkpt>
        <trkpt lat="29.522712" lon="103.3352386"><ele>3008.96</ele><time>2026-05-12T14:03:57.000Z</time></trkpt>
        <trkpt lat="29.5227269" lon="103.3352955"><ele>3010.02</ele><time>2026-05-12T14:04:07.000Z</time></trkpt>
        <trkpt lat="29.5227333" lon="103.3353603"><ele>3011.37</ele><time>2026-05-12T14:04:25.000Z</time></trkpt>
        <trkpt lat="29.5227383" lon="103.335423"><ele>3011.63</ele><time>2026-05-12T14:04:31.000Z</time></trkpt>
        <trkpt lat="29.5227503" lon="103.3354787"><ele>3012.51</ele><time>2026-05-12T14:04:40.000Z</time></trkpt>
        <trkpt lat="29.5227643" lon="103.3355398"><ele>3014.17</ele><time>2026-05-12T14:04:50.000Z</time></trkpt>
        <trkpt lat="29.5227805" lon="103.3356005"><ele>3015.38</ele><time>2026-05-12T14:05:00.000Z</time></trkpt>
        <trkpt lat="29.522792" lon="103.3356596"><ele>3014.39</ele><time>2026-05-12T14:05:08.000Z</time></trkpt>
        <trkpt lat="29.5227993" lon="103.335715"><ele>3014.12</ele><time>2026-05-12T14:05:24.000Z</time></trkpt>
        <trkpt lat="29.5227986" lon="103.3357788"><ele>3015.15</ele><time>2026-05-12T14:05:32.000Z</time></trkpt>
        <trkpt lat="29.522819" lon="103.3358351"><ele>3016.55</ele><time>2026-05-12T14:05:46.000Z</time></trkpt>
        <trkpt lat="29.5228617" lon="103.3358773"><ele>3017.79</ele><time>2026-05-12T14:05:56.000Z</time></trkpt>
        <trkpt lat="29.5229153" lon="103.3358898"><ele>3018.58</ele><time>2026-05-12T14:06:02.000Z</time></trkpt>
        <trkpt lat="29.5229701" lon="103.3358897"><ele>3019.65</ele><time>2026-05-12T14:06:10.000Z</time></trkpt>
        <trkpt lat="29.5230034" lon="103.3359204"><ele>3020.38</ele><time>2026-05-12T14:06:29.000Z</time></trkpt>
        <trkpt lat="29.5230318" lon="103.3359637"><ele>3023.08</ele><time>2026-05-12T14:06:39.000Z</time></trkpt>
        <trkpt lat="29.5230567" lon="103.3360208"><ele>3024.52</ele><time>2026-05-12T14:06:45.000Z</time></trkpt>
        <trkpt lat="29.5230758" lon="103.33609"><ele>3025.45</ele><time>2026-05-12T14:06:51.000Z</time></trkpt>
        <trkpt lat="29.5230611" lon="103.336185"><ele>3025.39</ele><time>2026-05-12T14:06:58.000Z</time></trkpt>
        <trkpt lat="29.5230608" lon="103.3362557"><ele>3026.35</ele><time>2026-05-12T14:07:04.000Z</time></trkpt>
        <trkpt lat="29.523075" lon="103.3363173"><ele>3026.71</ele><time>2026-05-12T14:07:10.000Z</time></trkpt>
        <trkpt lat="29.5230926" lon="103.336376"><ele>3026.84</ele><time>2026-05-12T14:07:14.000Z</time></trkpt>
        <trkpt lat="29.5231172" lon="103.336438"><ele>3026.91</ele><time>2026-05-12T14:07:20.000Z</time></trkpt>
        <trkpt lat="29.5231313" lon="103.3364926"><ele>3026.9</ele><time>2026-05-12T14:07:24.000Z</time></trkpt>
        <trkpt lat="29.5231545" lon="103.3365578"><ele>3026.84</ele><time>2026-05-12T14:07:30.000Z</time></trkpt>
        <trkpt lat="29.5231729" lon="103.3366174"><ele>3026.64</ele><time>2026-05-12T14:07:34.000Z</time></trkpt>
        <trkpt lat="29.5231835" lon="103.3366756"><ele>3026.48</ele><time>2026-05-12T14:07:38.000Z</time></trkpt>
        <trkpt lat="29.5232001" lon="103.3367286"><ele>3026.38</ele><time>2026-05-12T14:07:42.000Z</time></trkpt>
        <trkpt lat="29.523219" lon="103.3367829"><ele>3026.25</ele><time>2026-05-12T14:07:46.000Z</time></trkpt>
        <trkpt lat="29.5232359" lon="103.336838"><ele>3026.45</ele><time>2026-05-12T14:07:50.000Z</time></trkpt>
        <trkpt lat="29.5232482" lon="103.336895"><ele>3026.66</ele><time>2026-05-12T14:07:54.000Z</time></trkpt>
        <trkpt lat="29.5232565" lon="103.3369546"><ele>3026.8</ele><time>2026-05-12T14:07:58.000Z</time></trkpt>
        <trkpt lat="29.5232657" lon="103.3370088"><ele>3027.33</ele><time>2026-05-12T14:08:02.000Z</time></trkpt>
        <trkpt lat="29.5232941" lon="103.3370553"><ele>3027.68</ele><time>2026-05-12T14:08:08.000Z</time></trkpt>
        <trkpt lat="29.5233373" lon="103.3370517"><ele>3027.62</ele><time>2026-05-12T14:08:12.000Z</time></trkpt>
        <trkpt lat="29.523395" lon="103.3370304"><ele>3027.61</ele><time>2026-05-12T14:08:18.000Z</time></trkpt>
        <trkpt lat="29.5234484" lon="103.3370261"><ele>3027.53</ele><time>2026-05-12T14:08:24.000Z</time></trkpt>
        <trkpt lat="29.5234947" lon="103.3370374"><ele>3027.49</ele><time>2026-05-12T14:08:30.000Z</time></trkpt>
        <trkpt lat="29.5235375" lon="103.3370581"><ele>3027.36</ele><time>2026-05-12T14:08:46.000Z</time></trkpt>
        <trkpt lat="29.5235375" lon="103.3370581"><ele>3027.36</ele><time>2026-05-12T14:11:38.000Z</time></trkpt>
        <trkpt lat="29.5235207" lon="103.3370129"><ele>3026.84</ele><time>2026-05-12T14:11:44.000Z</time></trkpt>
        <trkpt lat="29.5235207" lon="103.3370129"><ele>3026.84</ele><time>2026-05-12T14:11:55.000Z</time></trkpt>
        <trkpt lat="29.5235435" lon="103.3369619"><ele>3027.06</ele><time>2026-05-12T14:12:11.000Z</time></trkpt>
        <trkpt lat="29.5235846" lon="103.3369319"><ele>3026.94</ele><time>2026-05-12T14:12:21.000Z</time></trkpt>
        <trkpt lat="29.5235846" lon="103.3369319"><ele>3026.94</ele><time>2026-05-12T14:12:58.000Z</time></trkpt>
        <trkpt lat="29.5235846" lon="103.3369319"><ele>3026.94</ele><time>2026-05-12T14:13:00.000Z</time></trkpt>
        <trkpt lat="29.5235846" lon="103.3369319"><ele>3026.94</ele><time>2026-05-12T14:13:22.000Z</time></trkpt>
        <trkpt lat="29.5235846" lon="103.3369319"><ele>3026.94</ele><time>2026-05-12T14:15:46.000Z</time></trkpt>
        <trkpt lat="29.5235846" lon="103.3369319"><ele>3026.94</ele><time>2026-05-12T14:16:08.000Z</time></trkpt>
        <trkpt lat="29.5235846" lon="103.3369319"><ele>3026.94</ele><time>2026-05-12T14:18:22.000Z</time></trkpt>
        <trkpt lat="29.5235846" lon="103.3369319"><ele>3026.94</ele><time>2026-05-12T14:18:44.000Z</time></trkpt>
        <trkpt lat="29.5235846" lon="103.3369319"><ele>3026.94</ele><time>2026-05-12T14:19:58.000Z</time></trkpt>
        <trkpt lat="29.5235846" lon="103.3369319"><ele>3026.94</ele><time>2026-05-12T14:20:20.000Z</time></trkpt>
        <trkpt lat="29.5235415" lon="103.3369675"><ele>3026.98</ele><time>2026-05-12T14:20:36.000Z</time></trkpt>
        <trkpt lat="29.5235415" lon="103.3369675"><ele>3026.98</ele><time>2026-05-12T14:21:04.000Z</time></trkpt>
        <trkpt lat="29.5235415" lon="103.3369675"><ele>3026.98</ele><time>2026-05-12T14:21:30.000Z</time></trkpt>
        <trkpt lat="29.5234825" lon="103.3369735"><ele>3027.13</ele><time>2026-05-12T14:21:38.000Z</time></trkpt>
        <trkpt lat="29.5234825" lon="103.3369735"><ele>3027.13</ele><time>2026-05-12T14:21:48.000Z</time></trkpt>
        <trkpt lat="29.5234368" lon="103.3369946"><ele>3026.61</ele><time>2026-05-12T14:22:05.000Z</time></trkpt>
        <trkpt lat="29.5234368" lon="103.3369946"><ele>3026.61</ele><time>2026-05-12T14:22:30.000Z</time></trkpt>
        <trkpt lat="29.5233819" lon="103.3370146"><ele>3026.87</ele><time>2026-05-12T14:22:36.000Z</time></trkpt>
        <trkpt lat="29.5233819" lon="103.3370146"><ele>3026.87</ele><time>2026-05-12T14:22:58.000Z</time></trkpt>
        <trkpt lat="29.5233391" lon="103.3370403"><ele>3027.41</ele><time>2026-05-12T14:23:04.000Z</time></trkpt>
        <trkpt lat="29.5232963" lon="103.3370499"><ele>3027.6</ele><time>2026-05-12T14:24:05.000Z</time></trkpt>
        <trkpt lat="29.5232826" lon="103.3371108"><ele>3026.88</ele><time>2026-05-12T14:24:13.000Z</time></trkpt>
        <trkpt lat="29.5232945" lon="103.3371654"><ele>3026.02</ele><time>2026-05-12T14:24:26.000Z</time></trkpt>
        <trkpt lat="29.5232871" lon="103.337218"><ele>3025.1</ele><time>2026-05-12T14:24:44.000Z</time></trkpt>
        <trkpt lat="29.5233003" lon="103.3371949"><ele>3025.01</ele><time>2026-05-12T14:25:29.000Z</time></trkpt>
        <trkpt lat="29.5233262" lon="103.3372213"><ele>3025.39</ele><time>2026-05-12T14:26:15.000Z</time></trkpt>
        <trkpt lat="29.5233503" lon="103.3372662"><ele>3024.45</ele><time>2026-05-12T14:26:31.000Z</time></trkpt>
        <trkpt lat="29.5233503" lon="103.3372662"><ele>3024.45</ele><time>2026-05-12T14:27:10.000Z</time></trkpt>
        <trkpt lat="29.5233319" lon="103.3373176"><ele>3023.56</ele><time>2026-05-12T14:27:14.000Z</time></trkpt>
        <trkpt lat="29.5233319" lon="103.3373176"><ele>3023.56</ele><time>2026-05-12T14:27:18.000Z</time></trkpt>
        <trkpt lat="29.5233144" lon="103.3373703"><ele>3021.3</ele><time>2026-05-12T14:27:28.000Z</time></trkpt>
        <trkpt lat="29.5232863" lon="103.3374245"><ele>3019.73</ele><time>2026-05-12T14:27:34.000Z</time></trkpt>
        <trkpt lat="29.5232344" lon="103.3374415"><ele>3018.3</ele><time>2026-05-12T14:28:13.000Z</time></trkpt>
        <trkpt lat="29.5231782" lon="103.3374493"><ele>3017.6</ele><time>2026-05-12T14:28:51.000Z</time></trkpt>
        <trkpt lat="29.5231782" lon="103.3374493"><ele>3017.6</ele><time>2026-05-12T14:29:48.000Z</time></trkpt>
        <trkpt lat="29.5232207" lon="103.3374444"><ele>3017.94</ele><time>2026-05-12T14:30:00.000Z</time></trkpt>
        <trkpt lat="29.5232207" lon="103.3374444"><ele>3017.94</ele><time>2026-05-12T14:30:12.000Z</time></trkpt>
        <trkpt lat="29.5232207" lon="103.3374444"><ele>3017.94</ele><time>2026-05-12T14:31:26.000Z</time></trkpt>
        <trkpt lat="29.5232207" lon="103.3374444"><ele>3017.94</ele><time>2026-05-12T14:31:30.000Z</time></trkpt>
        <trkpt lat="29.5232207" lon="103.3374444"><ele>3017.94</ele><time>2026-05-12T14:31:54.000Z</time></trkpt>
        <trkpt lat="29.52327" lon="103.3374091"><ele>3018.1</ele><time>2026-05-12T14:32:00.000Z</time></trkpt>
        <trkpt lat="29.52327" lon="103.3374091"><ele>3018.1</ele><time>2026-05-12T14:32:05.000Z</time></trkpt>
        <trkpt lat="29.52327" lon="103.3374091"><ele>3018.1</ele><time>2026-05-12T14:32:34.000Z</time></trkpt>
        <trkpt lat="29.52327" lon="103.3374091"><ele>3018.1</ele><time>2026-05-12T14:32:42.000Z</time></trkpt>
        <trkpt lat="29.52327" lon="103.3374091"><ele>3018.1</ele><time>2026-05-12T14:33:24.000Z</time></trkpt>
        <trkpt lat="29.52327" lon="103.3374091"><ele>3018.1</ele><time>2026-05-12T14:33:32.000Z</time></trkpt>
        <trkpt lat="29.52327" lon="103.3374091"><ele>3018.1</ele><time>2026-05-12T14:34:00.000Z</time></trkpt>
        <trkpt lat="29.52327" lon="103.3374091"><ele>3018.1</ele><time>2026-05-12T14:36:10.000Z</time></trkpt>
        <trkpt lat="29.52327" lon="103.3374091"><ele>3018.1</ele><time>2026-05-12T14:36:32.000Z</time></trkpt>
        <trkpt lat="29.52327" lon="103.3374091"><ele>3018.1</ele><time>2026-05-12T14:36:38.000Z</time></trkpt>
        <trkpt lat="29.52327" lon="103.3374091"><ele>3018.1</ele><time>2026-05-12T14:37:12.000Z</time></trkpt>
        <trkpt lat="29.52327" lon="103.3374091"><ele>3018.1</ele><time>2026-05-12T14:37:56.000Z</time></trkpt>
        <trkpt lat="29.52327" lon="103.3374091"><ele>3018.1</ele><time>2026-05-12T14:38:18.000Z</time></trkpt>
        <trkpt lat="29.52327" lon="103.3374091"><ele>3018.1</ele><time>2026-05-12T14:38:52.000Z</time></trkpt>
        <trkpt lat="29.52327" lon="103.3374091"><ele>3018.1</ele><time>2026-05-12T14:39:56.000Z</time></trkpt>
        <trkpt lat="29.5232916" lon="103.3373595"><ele>3017.8</ele><time>2026-05-12T14:41:08.000Z</time></trkpt>
        <trkpt lat="29.5232916" lon="103.3373595"><ele>3017.8</ele><time>2026-05-12T14:41:24.000Z</time></trkpt>
        <trkpt lat="29.5233125" lon="103.3373137"><ele>3016.44</ele><time>2026-05-12T14:42:10.000Z</time></trkpt>
        <trkpt lat="29.5233125" lon="103.3373137"><ele>3016.44</ele><time>2026-05-12T14:42:44.000Z</time></trkpt>
        <trkpt lat="29.5233279" lon="103.3372565"><ele>3016.91</ele><time>2026-05-12T14:43:12.000Z</time></trkpt>
        <trkpt lat="29.5233279" lon="103.3372565"><ele>3016.91</ele><time>2026-05-12T14:43:18.000Z</time></trkpt>
        <trkpt lat="29.5233279" lon="103.3372565"><ele>3016.91</ele><time>2026-05-12T14:43:54.000Z</time></trkpt>
        <trkpt lat="29.5233155" lon="103.3372048"><ele>3018.04</ele><time>2026-05-12T14:43:58.000Z</time></trkpt>
        <trkpt lat="29.5233155" lon="103.3372048"><ele>3018.04</ele><time>2026-05-12T14:44:06.000Z</time></trkpt>
        <trkpt lat="29.5232825" lon="103.3371653"><ele>3020.28</ele><time>2026-05-12T14:44:22.000Z</time></trkpt>
        <trkpt lat="29.5232677" lon="103.3371142"><ele>3022.59</ele><time>2026-05-12T14:44:32.000Z</time></trkpt>
        <trkpt lat="29.5232552" lon="103.337061"><ele>3023.9</ele><time>2026-05-12T14:44:44.000Z</time></trkpt>
        <trkpt lat="29.523245" lon="103.337008"><ele>3025.05</ele><time>2026-05-12T14:44:54.000Z</time></trkpt>
        <trkpt lat="29.5232373" lon="103.3369497"><ele>3025.66</ele><time>2026-05-12T14:45:02.000Z</time></trkpt>
        <trkpt lat="29.5232637" lon="103.3369579"><ele>3026.31</ele><time>2026-05-12T14:45:38.000Z</time></trkpt>
        <trkpt lat="29.5232637" lon="103.3369579"><ele>3026.31</ele><time>2026-05-12T14:46:03.000Z</time></trkpt>
      </trkseg>
  </trk>
</gpx>